<?xml version='1.0' encoding='UTF-8'?><gpx version="1.1" creator="JPX - https://github.com/jenetics/jpx" xmlns="http://www.topografix.com/GPX/1/1"><trk><trkseg><trkpt lat="37.02534509423008" lon="-8.02551708509216"><ele>2.0</ele><time>2026-04-04T10:06:24.998Z</time></trkpt><trkpt lat="37.02530779924874" lon="-8.025447249595004"><ele>1.9999999999999998</ele><time>2026-04-04T10:06:34.998Z</time></trkpt><trkpt lat="37.02531388018015" lon="-8.025366202221548"><ele>2.0</ele><time>2026-04-04T10:06:42.998Z</time></trkpt><trkpt lat="37.025352993168305" lon="-8.025297059929322"><ele>2.0</ele><time>2026-04-04T10:06:48.997Z</time></trkpt><trkpt lat="37.02540547393617" lon="-8.025231819370246"><ele>1.9999999999999998</ele><time>2026-04-04T10:06:54.997Z</time></trkpt><trkpt lat="37.02544752316648" lon="-8.02517099145887"><ele>2.0</ele><time>2026-04-04T10:07:00.999Z</time></trkpt><trkpt lat="37.02549768182969" lon="-8.025111356752507"><ele>2.0</ele><time>2026-04-04T10:07:06.999Z</time></trkpt><trkpt lat="37.02554887385261" lon="-8.025052574614714"><ele>2.0</ele><time>2026-04-04T10:07:12.999Z</time></trkpt><trkpt lat="37.02559473792184" lon="-8.024992094700172"><ele>1.9999999999999998</ele><time>2026-04-04T10:07:17.999Z</time></trkpt><trkpt lat="37.02564201181717" lon="-8.0249244255043"><ele>2.0</ele><time>2026-04-04T10:07:23.999Z</time></trkpt><trkpt lat="37.025679461745796" lon="-8.024858641415344"><ele>2.0</ele><time>2026-04-04T10:07:29.999Z</time></trkpt><trkpt lat="37.02572936654649" lon="-8.024791715561664"><ele>1.9999999999999998</ele><time>2026-04-04T10:07:35.999Z</time></trkpt><trkpt lat="37.02577353744478" lon="-8.024729168461224"><ele>2.0</ele><time>2026-04-04T10:07:41.999Z</time></trkpt><trkpt lat="37.02582086671026" lon="-8.024661699334372"><ele>2.0</ele><time>2026-04-04T10:07:47.999Z</time></trkpt><trkpt lat="37.02586962059494" lon="-8.024593120233002"><ele>2.2857142857142856</ele><time>2026-04-04T10:07:53.999Z</time></trkpt><trkpt lat="37.025915387875294" lon="-8.024532352340275"><ele>2.571428571428571</ele><time>2026-04-04T10:07:59.998Z</time></trkpt><trkpt lat="37.02596159725154" lon="-8.024463654822977"><ele>2.8571428571428568</ele><time>2026-04-04T10:08:05.998Z</time></trkpt><trkpt lat="37.02601156254251" lon="-8.024393632203148"><ele>3.142857142857143</ele><time>2026-04-04T10:08:12.998Z</time></trkpt><trkpt lat="37.02605216843545" lon="-8.024328936611822"><ele>3.428571428571428</ele><time>2026-04-04T10:08:18.998Z</time></trkpt><trkpt lat="37.026098002577896" lon="-8.024261754404074"><ele>3.714285714285714</ele><time>2026-04-04T10:08:24.998Z</time></trkpt><trkpt lat="37.026145073302445" lon="-8.02419735355137"><ele>4.0</ele><time>2026-04-04T10:08:30.998Z</time></trkpt><trkpt lat="37.02618928432508" lon="-8.024127821671073"><ele>4.0</ele><time>2026-04-04T10:08:36.998Z</time></trkpt><trkpt lat="37.02622137392588" lon="-8.024057069425693"><ele>3.9999999999999996</ele><time>2026-04-04T10:08:42.998Z</time></trkpt><trkpt lat="37.0262530044128" lon="-8.023987418031394"><ele>4.0</ele><time>2026-04-04T10:08:48.997Z</time></trkpt><trkpt lat="37.02629866228837" lon="-8.02392769177205"><ele>4.0</ele><time>2026-04-04T10:08:53.997Z</time></trkpt><trkpt lat="37.02633372115353" lon="-8.023854431707246"><ele>3.9999999999999996</ele><time>2026-04-04T10:08:58.997Z</time></trkpt><trkpt lat="37.026383415507674" lon="-8.023795355399377"><ele>4.0</ele><time>2026-04-04T10:09:03.997Z</time></trkpt><trkpt lat="37.026429802847055" lon="-8.023720717177156"><ele>4.0</ele><time>2026-04-04T10:09:09.999Z</time></trkpt><trkpt lat="37.02647267816901" lon="-8.023651405467788"><ele>4.0</ele><time>2026-04-04T10:09:14.999Z</time></trkpt><trkpt lat="37.026516285615536" lon="-8.023587485880302"><ele>3.9999999999999996</ele><time>2026-04-04T10:09:19.999Z</time></trkpt><trkpt lat="37.02655846552393" lon="-8.023521808900398"><ele>4.0</ele><time>2026-04-04T10:09:24.999Z</time></trkpt><trkpt lat="37.0265978750267" lon="-8.023458970088557"><ele>4.0</ele><time>2026-04-04T10:09:29.999Z</time></trkpt><trkpt lat="37.026641717045194" lon="-8.023402059294336"><ele>3.9999999999999996</ele><time>2026-04-04T10:09:34.999Z</time></trkpt><trkpt lat="37.02668898598635" lon="-8.023327430158329"><ele>4.0</ele><time>2026-04-04T10:09:40.999Z</time></trkpt><trkpt lat="37.02673510790009" lon="-8.023253269488452"><ele>4.0</ele><time>2026-04-04T10:09:46.999Z</time></trkpt><trkpt lat="37.02677863319652" lon="-8.023191112304943"><ele>3.714285714285714</ele><time>2026-04-04T10:09:51.999Z</time></trkpt><trkpt lat="37.02682127561398" lon="-8.0231309713749"><ele>3.428571428571428</ele><time>2026-04-04T10:09:56.999Z</time></trkpt><trkpt lat="37.02686583318263" lon="-8.023069647228038"><ele>3.142857142857143</ele><time>2026-04-04T10:10:01.999Z</time></trkpt><trkpt lat="37.026905971928784" lon="-8.023004399833134"><ele>2.8571428571428568</ele><time>2026-04-04T10:10:06.999Z</time></trkpt><trkpt lat="37.026952921499785" lon="-8.022940446620423"><ele>2.571428571428571</ele><time>2026-04-04T10:10:11.998Z</time></trkpt><trkpt lat="37.02699431461247" lon="-8.022874015054557"><ele>2.2857142857142856</ele><time>2026-04-04T10:10:16.998Z</time></trkpt><trkpt lat="37.0270390975774" lon="-8.022812508736688"><ele>2.0</ele><time>2026-04-04T10:10:21.998Z</time></trkpt><trkpt lat="37.027080905444436" lon="-8.022745890044424"><ele>2.0</ele><time>2026-04-04T10:10:26.998Z</time></trkpt><trkpt lat="37.0271203118455" lon="-8.022683131342342"><ele>1.9999999999999998</ele><time>2026-04-04T10:10:31.998Z</time></trkpt><trkpt lat="37.02716365139658" lon="-8.022621213660416"><ele>2.0</ele><time>2026-04-04T10:10:36.998Z</time></trkpt><trkpt lat="37.02721259140701" lon="-8.022548727443207"><ele>2.0</ele><time>2026-04-04T10:10:42.998Z</time></trkpt><trkpt lat="37.02725921631929" lon="-8.022484982846265"><ele>1.9999999999999998</ele><time>2026-04-04T10:10:47.998Z</time></trkpt><trkpt lat="37.02730734807061" lon="-8.02241908748767"><ele>2.0</ele><time>2026-04-04T10:10:52.998Z</time></trkpt><trkpt lat="37.02734800406447" lon="-8.022355770727263"><ele>2.0</ele><time>2026-04-04T10:10:57.998Z</time></trkpt><trkpt lat="37.02739459328844" lon="-8.02228398675542"><ele>1.857142857142857</ele><time>2026-04-04T10:11:03.998Z</time></trkpt><trkpt lat="37.02743965197797" lon="-8.02222241993842"><ele>1.714285714285714</ele><time>2026-04-04T10:11:08.997Z</time></trkpt><trkpt lat="37.02747898413647" lon="-8.022156423401674"><ele>1.5714285714285714</ele><time>2026-04-04T10:11:14Z</time></trkpt><trkpt lat="37.027523800587" lon="-8.022091364047972"><ele>1.4285714285714284</ele><time>2026-04-04T10:11:19Z</time></trkpt><trkpt lat="37.02756904027077" lon="-8.02202683527581"><ele>1.2857142857142856</ele><time>2026-04-04T10:11:24Z</time></trkpt><trkpt lat="37.02761202811921" lon="-8.021963241285935"><ele>1.1428571428571428</ele><time>2026-04-04T10:11:29Z</time></trkpt><trkpt lat="37.027649210944" lon="-8.021897552075794"><ele>1.0</ele><time>2026-04-04T10:11:33.999Z</time></trkpt><trkpt lat="37.02768993998988" lon="-8.021834573282941"><ele>1.0</ele><time>2026-04-04T10:11:38.999Z</time></trkpt><trkpt lat="37.027730870096164" lon="-8.021770627868705"><ele>0.9999999999999999</ele><time>2026-04-04T10:11:43.999Z</time></trkpt><trkpt lat="37.02777355325371" lon="-8.021705361587252"><ele>1.0</ele><time>2026-04-04T10:11:48.999Z</time></trkpt><trkpt lat="37.027814941812444" lon="-8.02164061960603"><ele>1.0</ele><time>2026-04-04T10:11:53.999Z</time></trkpt><trkpt lat="37.027859328920684" lon="-8.021577963847825"><ele>0.9999999999999999</ele><time>2026-04-04T10:11:58.999Z</time></trkpt><trkpt lat="37.02790437408639" lon="-8.021514532173654"><ele>1.0</ele><time>2026-04-04T10:12:03.999Z</time></trkpt><trkpt lat="37.02794811048508" lon="-8.021449914715332"><ele>1.0</ele><time>2026-04-04T10:12:08.999Z</time></trkpt><trkpt lat="37.02799133242098" lon="-8.02138805633008"><ele>1.1428571428571428</ele><time>2026-04-04T10:12:13.999Z</time></trkpt><trkpt lat="37.028030808201116" lon="-8.021321572675157"><ele>1.2857142857142856</ele><time>2026-04-04T10:12:18.999Z</time></trkpt><trkpt lat="37.0280707975157" lon="-8.021256327817005"><ele>1.4285714285714284</ele><time>2026-04-04T10:12:23.999Z</time></trkpt><trkpt lat="37.02811681523488" lon="-8.021197393684654"><ele>1.5714285714285714</ele><time>2026-04-04T10:12:28.998Z</time></trkpt><trkpt lat="37.02816179662479" lon="-8.021120341846316"><ele>1.714285714285714</ele><time>2026-04-04T10:12:34.998Z</time></trkpt><trkpt lat="37.028206734345105" lon="-8.021057639696375"><ele>1.857142857142857</ele><time>2026-04-04T10:12:39.998Z</time></trkpt><trkpt lat="37.028234989933196" lon="-8.020984380317278"><ele>2.0</ele><time>2026-04-04T10:12:45.998Z</time></trkpt><trkpt lat="37.028179866350484" lon="-8.020940225040972"><ele>1.9999999999999998</ele><time>2026-04-04T10:12:54.998Z</time></trkpt><trkpt lat="37.02812107581884" lon="-8.02088087968371"><ele>2.0</ele><time>2026-04-04T10:13:00.998Z</time></trkpt><trkpt lat="37.028226246916816" lon="-8.020822046404302"><ele>2.0</ele><time>2026-04-04T10:13:12.998Z</time></trkpt><trkpt lat="37.02829646048287" lon="-8.020806186118664"><ele>2.0</ele><time>2026-04-04T10:13:18Z</time></trkpt><trkpt lat="37.028303907480435" lon="-8.020719816749091"><ele>1.9999999999999998</ele><time>2026-04-04T10:13:25Z</time></trkpt><trkpt lat="37.028304265570604" lon="-8.02080056606015"><ele>2.0</ele><time>2026-04-04T10:14:01.999Z</time></trkpt><trkpt lat="37.028231550758726" lon="-8.020821704371606"><ele>2.0</ele><time>2026-04-04T10:14:06.999Z</time></trkpt><trkpt lat="37.02816285636165" lon="-8.02083749470664"><ele>1.9999999999999998</ele><time>2026-04-04T10:14:12.999Z</time></trkpt><trkpt lat="37.028090792423406" lon="-8.020837352706323"><ele>2.0</ele><time>2026-04-04T10:14:17.999Z</time></trkpt><trkpt lat="37.028016702494014" lon="-8.020828244993838"><ele>2.0</ele><time>2026-04-04T10:14:25.999Z</time></trkpt><trkpt lat="37.02794516868446" lon="-8.02079516723263"><ele>1.9999999999999998</ele><time>2026-04-04T10:14:33.999Z</time></trkpt><trkpt lat="37.02787386148595" lon="-8.020756411462717"><ele>2.0</ele><time>2026-04-04T10:14:37.999Z</time></trkpt><trkpt lat="37.027809760168594" lon="-8.020716625859713"><ele>2.0</ele><time>2026-04-04T10:14:40.999Z</time></trkpt><trkpt lat="37.027751393949956" lon="-8.020657789937012"><ele>1.857142857142857</ele><time>2026-04-04T10:14:43.998Z</time></trkpt><trkpt lat="37.02769737767269" lon="-8.020589876116945"><ele>1.714285714285714</ele><time>2026-04-04T10:14:46.998Z</time></trkpt><trkpt lat="37.02763163037917" lon="-8.020526976134683"><ele>1.5714285714285714</ele><time>2026-04-04T10:14:49.998Z</time></trkpt><trkpt lat="37.027575432590034" lon="-8.020465201600839"><ele>1.4285714285714284</ele><time>2026-04-04T10:14:52.998Z</time></trkpt><trkpt lat="37.027510567422034" lon="-8.02042315697855"><ele>1.2857142857142856</ele><time>2026-04-04T10:14:55.998Z</time></trkpt><trkpt lat="37.02744907814447" lon="-8.020384868521154"><ele>1.1428571428571428</ele><time>2026-04-04T10:14:58.998Z</time></trkpt><trkpt lat="37.027387011295595" lon="-8.020345024466842"><ele>1.0</ele><time>2026-04-04T10:15:01.998Z</time></trkpt><trkpt lat="37.02731866877699" lon="-8.020295238869165"><ele>0.9999999999999999</ele><time>2026-04-04T10:15:04.998Z</time></trkpt><trkpt lat="37.027250490175525" lon="-8.020232999755528"><ele>1.0</ele><time>2026-04-04T10:15:07.998Z</time></trkpt><trkpt lat="37.02720487614047" lon="-8.020144966489326"><ele>1.0</ele><time>2026-04-04T10:15:10.998Z</time></trkpt><trkpt lat="37.02715014715734" lon="-8.020072949617786"><ele>1.0</ele><time>2026-04-04T10:15:13.998Z</time></trkpt><trkpt lat="37.02709504380594" lon="-8.01999546576532"><ele>0.9999999999999999</ele><time>2026-04-04T10:15:16.998Z</time></trkpt><trkpt lat="37.027037702326716" lon="-8.019924977963383"><ele>1.0</ele><time>2026-04-04T10:15:19.998Z</time></trkpt><trkpt lat="37.02699417711361" lon="-8.019854819940676"><ele>1.5</ele><time>2026-04-04T10:15:23Z</time></trkpt><trkpt lat="37.02694139648994" lon="-8.019779611322205"><ele>2.0</ele><time>2026-04-04T10:15:26Z</time></trkpt><trkpt lat="37.02688340282256" lon="-8.01971650528194"><ele>2.5</ele><time>2026-04-04T10:15:29Z</time></trkpt><trkpt lat="37.0268141799276" lon="-8.019654947258644"><ele>3.0</ele><time>2026-04-04T10:15:32Z</time></trkpt><trkpt lat="37.02674610548895" lon="-8.019585908352827"><ele>3.4999999999999996</ele><time>2026-04-04T10:15:35Z</time></trkpt><trkpt lat="37.02669743092137" lon="-8.01952602040659"><ele>4.0</ele><time>2026-04-04T10:15:38Z</time></trkpt><trkpt lat="37.026660470239456" lon="-8.019405883527455"><ele>3.833333333333333</ele><time>2026-04-04T10:15:41Z</time></trkpt><trkpt lat="37.02663829659706" lon="-8.019308754296661"><ele>3.6666666666666665</ele><time>2026-04-04T10:15:44Z</time></trkpt><trkpt lat="37.026594604509505" lon="-8.019228137760422"><ele>3.5</ele><time>2026-04-04T10:15:47Z</time></trkpt><trkpt lat="37.026528805031155" lon="-8.019158481235992"><ele>3.333333333333333</ele><time>2026-04-04T10:15:49.999Z</time></trkpt><trkpt lat="37.02646267689432" lon="-8.01910837333395"><ele>3.1666666666666665</ele><time>2026-04-04T10:15:52.999Z</time></trkpt><trkpt lat="37.026400002108566" lon="-8.019064629385094"><ele>3.0</ele><time>2026-04-04T10:15:55.999Z</time></trkpt><trkpt lat="37.0263444566848" lon="-8.0189962743436"><ele>3.0</ele><time>2026-04-04T10:15:58.999Z</time></trkpt><trkpt lat="37.02628661523695" lon="-8.018914650059504"><ele>3.0</ele><time>2026-04-04T10:16:01.999Z</time></trkpt><trkpt lat="37.02622889614182" lon="-8.018846650162574"><ele>3.0</ele><time>2026-04-04T10:16:04.999Z</time></trkpt><trkpt lat="37.02617472398868" lon="-8.01876621285636"><ele>3.0</ele><time>2026-04-04T10:16:07.999Z</time></trkpt><trkpt lat="37.02612844574986" lon="-8.01867750291751"><ele>3.0</ele><time>2026-04-04T10:16:10.999Z</time></trkpt><trkpt lat="37.02608702128229" lon="-8.018600798699593"><ele>3.0</ele><time>2026-04-04T10:16:12.999Z</time></trkpt><trkpt lat="37.02603300693035" lon="-8.018503927023291"><ele>2.9999999999999996</ele><time>2026-04-04T10:16:15.999Z</time></trkpt><trkpt lat="37.025999778095354" lon="-8.01843589206217"><ele>3.0</ele><time>2026-04-04T10:16:17.999Z</time></trkpt><trkpt lat="37.02596100877855" lon="-8.01836502099392"><ele>3.0</ele><time>2026-04-04T10:16:19.999Z</time></trkpt><trkpt lat="37.02592362180077" lon="-8.018292190267848"><ele>3.0</ele><time>2026-04-04T10:16:21.999Z</time></trkpt><trkpt lat="37.025886723823426" lon="-8.018223656119186"><ele>3.0</ele><time>2026-04-04T10:16:23.999Z</time></trkpt><trkpt lat="37.025851488595066" lon="-8.018152813042486"><ele>2.9999999999999996</ele><time>2026-04-04T10:16:25.999Z</time></trkpt><trkpt lat="37.02579272685948" lon="-8.018077830031666"><ele>3.0</ele><time>2026-04-04T10:16:28.999Z</time></trkpt><trkpt lat="37.02573330973702" lon="-8.017994421755072"><ele>2.6666666666666665</ele><time>2026-04-04T10:16:31.999Z</time></trkpt><trkpt lat="37.02567262443904" lon="-8.01791090126934"><ele>2.3333333333333335</ele><time>2026-04-04T10:16:34.999Z</time></trkpt><trkpt lat="37.02562834917445" lon="-8.017854643416763"><ele>2.0</ele><time>2026-04-04T10:16:36.999Z</time></trkpt><trkpt lat="37.02556335236564" lon="-8.017779793683717"><ele>1.6666666666666665</ele><time>2026-04-04T10:16:38.999Z</time></trkpt><trkpt lat="37.02550457597263" lon="-8.01770042767241"><ele>1.3333333333333333</ele><time>2026-04-04T10:16:41.999Z</time></trkpt><trkpt lat="37.025439499982035" lon="-8.0176212949905"><ele>1.0</ele><time>2026-04-04T10:16:44.998Z</time></trkpt><trkpt lat="37.025375519076846" lon="-8.017549004920548"><ele>0.9999999999999999</ele><time>2026-04-04T10:16:47.998Z</time></trkpt><trkpt lat="37.02531275556712" lon="-8.01748782750445"><ele>1.0</ele><time>2026-04-04T10:16:50.998Z</time></trkpt><trkpt lat="37.025254628625135" lon="-8.017409034711747"><ele>1.0</ele><time>2026-04-04T10:16:53.998Z</time></trkpt><trkpt lat="37.02520673634011" lon="-8.01731778013579"><ele>1.0</ele><time>2026-04-04T10:16:56.998Z</time></trkpt><trkpt lat="37.02517803659528" lon="-8.017218142655306"><ele>0.9999999999999999</ele><time>2026-04-04T10:16:59.998Z</time></trkpt><trkpt lat="37.02515742522485" lon="-8.017142688431239"><ele>1.0</ele><time>2026-04-04T10:17:01.998Z</time></trkpt><trkpt lat="37.025122932077984" lon="-8.01703911352917"><ele>0.9999999999999999</ele><time>2026-04-04T10:17:04.998Z</time></trkpt><trkpt lat="37.025072618525314" lon="-8.016946272867992"><ele>1.0</ele><time>2026-04-04T10:17:07.998Z</time></trkpt><trkpt lat="37.02502529001952" lon="-8.016874568630676"><ele>1.0</ele><time>2026-04-04T10:17:10.998Z</time></trkpt><trkpt lat="37.02497254618643" lon="-8.01678937665164"><ele>1.0</ele><time>2026-04-04T10:17:13.998Z</time></trkpt><trkpt lat="37.0249233665821" lon="-8.016715368047567"><ele>0.9999999999999999</ele><time>2026-04-04T10:17:16.998Z</time></trkpt><trkpt lat="37.024874652242346" lon="-8.01664103113717"><ele>1.0</ele><time>2026-04-04T10:17:19.998Z</time></trkpt><trkpt lat="37.024825547808916" lon="-8.016569085374993"><ele>1.0</ele><time>2026-04-04T10:17:22.998Z</time></trkpt><trkpt lat="37.02477959124779" lon="-8.01650201974527"><ele>0.9999999999999999</ele><time>2026-04-04T10:17:25.998Z</time></trkpt><trkpt lat="37.024734452566115" lon="-8.01644054063393"><ele>1.0</ele><time>2026-04-04T10:17:29Z</time></trkpt><trkpt lat="37.02466767955379" lon="-8.016410977048936"><ele>1.0</ele><time>2026-04-04T10:17:32Z</time></trkpt><trkpt lat="37.024604207331365" lon="-8.01637470415914"><ele>0.9999999999999999</ele><time>2026-04-04T10:17:36Z</time></trkpt><trkpt lat="37.02454968859915" lon="-8.016317995175966"><ele>1.0</ele><time>2026-04-04T10:17:39Z</time></trkpt><trkpt lat="37.02450816962502" lon="-8.01624440433917"><ele>1.0</ele><time>2026-04-04T10:17:42Z</time></trkpt><trkpt lat="37.024481636516605" lon="-8.016156635055529"><ele>1.0</ele><time>2026-04-04T10:17:45Z</time></trkpt><trkpt lat="37.024479897770654" lon="-8.016074744350375"><ele>0.9999999999999999</ele><time>2026-04-04T10:17:48Z</time></trkpt><trkpt lat="37.024484155099664" lon="-8.015984376680505"><ele>1.0</ele><time>2026-04-04T10:17:49.999Z</time></trkpt><trkpt lat="37.02452684416181" lon="-8.01590979906938"><ele>1.0</ele><time>2026-04-04T10:17:52.999Z</time></trkpt><trkpt lat="37.02459550195723" lon="-8.015834614164854"><ele>0.9999999999999999</ele><time>2026-04-04T10:17:56.999Z</time></trkpt><trkpt lat="37.02464728319553" lon="-8.015773503266773"><ele>1.0</ele><time>2026-04-04T10:17:59.999Z</time></trkpt><trkpt lat="37.02468163489966" lon="-8.015699909994288"><ele>1.0</ele><time>2026-04-04T10:18:02.999Z</time></trkpt><trkpt lat="37.02470932296609" lon="-8.015623620423913"><ele>1.1428571428571428</ele><time>2026-04-04T10:18:05.999Z</time></trkpt><trkpt lat="37.024748003681275" lon="-8.015556774567623"><ele>1.2857142857142856</ele><time>2026-04-04T10:18:07.999Z</time></trkpt><trkpt lat="37.024721801364834" lon="-8.015469784344043"><ele>1.4285714285714284</ele><time>2026-04-04T10:18:17.999Z</time></trkpt><trkpt lat="37.024682200368716" lon="-8.015387950277114"><ele>1.5714285714285714</ele><time>2026-04-04T10:18:21.999Z</time></trkpt><trkpt lat="37.02462785685998" lon="-8.015323289135578"><ele>1.714285714285714</ele><time>2026-04-04T10:18:31.999Z</time></trkpt><trkpt lat="37.024605883256434" lon="-8.015244456959982"><ele>1.857142857142857</ele><time>2026-04-04T10:18:35.999Z</time></trkpt><trkpt lat="37.02457935679951" lon="-8.015148103148002"><ele>2.0</ele><time>2026-04-04T10:18:40.999Z</time></trkpt><trkpt lat="37.02454055280881" lon="-8.015068136497742"><ele>1.9999999999999998</ele><time>2026-04-04T10:18:43.998Z</time></trkpt><trkpt lat="37.0245069023671" lon="-8.014980358040376"><ele>2.0</ele><time>2026-04-04T10:18:46.998Z</time></trkpt><trkpt lat="37.02447368991976" lon="-8.014894649034705"><ele>2.0</ele><time>2026-04-04T10:18:49.998Z</time></trkpt><trkpt lat="37.024442793252426" lon="-8.014809425533619"><ele>2.0</ele><time>2026-04-04T10:18:52.998Z</time></trkpt><trkpt lat="37.024411837042294" lon="-8.014708852613428"><ele>1.9999999999999998</ele><time>2026-04-04T10:18:55.998Z</time></trkpt><trkpt lat="37.02437138291825" lon="-8.014604572428693"><ele>2.0</ele><time>2026-04-04T10:18:58.998Z</time></trkpt><trkpt lat="37.02432905220696" lon="-8.014503113500396"><ele>1.9999999999999998</ele><time>2026-04-04T10:19:01.998Z</time></trkpt><trkpt lat="37.024288360015476" lon="-8.01439837119619"><ele>2.0</ele><time>2026-04-04T10:19:04.998Z</time></trkpt><trkpt lat="37.02423840868923" lon="-8.014310185799784"><ele>2.0</ele><time>2026-04-04T10:19:07.998Z</time></trkpt><trkpt lat="37.024203813827725" lon="-8.014226031101952"><ele>2.0</ele><time>2026-04-04T10:19:09.998Z</time></trkpt><trkpt lat="37.02417280104767" lon="-8.014154209348572"><ele>1.9999999999999998</ele><time>2026-04-04T10:19:11.998Z</time></trkpt><trkpt lat="37.02413848981634" lon="-8.014057919203946"><ele>2.0</ele><time>2026-04-04T10:19:14.998Z</time></trkpt><trkpt lat="37.024117802666794" lon="-8.013982507423552"><ele>1.9999999999999998</ele><time>2026-04-04T10:19:17.998Z</time></trkpt><trkpt lat="37.02407632272072" lon="-8.01389368197481"><ele>2.0</ele><time>2026-04-04T10:19:20.998Z</time></trkpt><trkpt lat="37.02404631235111" lon="-8.01382328202067"><ele>2.0</ele><time>2026-04-04T10:19:23.998Z</time></trkpt><trkpt lat="37.024029885861346" lon="-8.013745250004604"><ele>2.0</ele><time>2026-04-04T10:19:26.998Z</time></trkpt><trkpt lat="37.02398832828989" lon="-8.013655098750954"><ele>1.9999999999999998</ele><time>2026-04-04T10:19:29.998Z</time></trkpt><trkpt lat="37.02393844302364" lon="-8.013557281886092"><ele>2.0</ele><time>2026-04-04T10:19:32.998Z</time></trkpt><trkpt lat="37.02391009864228" lon="-8.013484377939417"><ele>1.9999999999999998</ele><time>2026-04-04T10:19:34.999Z</time></trkpt><trkpt lat="37.023877706928715" lon="-8.013382565184932"><ele>2.0</ele><time>2026-04-04T10:19:37.999Z</time></trkpt><trkpt lat="37.02384253317554" lon="-8.01329494823192"><ele>2.0</ele><time>2026-04-04T10:19:40.999Z</time></trkpt><trkpt lat="37.02381692059818" lon="-8.013193195154816"><ele>2.0</ele><time>2026-04-04T10:19:43.999Z</time></trkpt><trkpt lat="37.0237888557463" lon="-8.013113303419733"><ele>1.9999999999999998</ele><time>2026-04-04T10:19:47.999Z</time></trkpt><trkpt lat="37.02374951985681" lon="-8.013044885330078"><ele>2.0</ele><time>2026-04-04T10:20:44.999Z</time></trkpt><trkpt lat="37.02370658282555" lon="-8.012978794074332"><ele>1.857142857142857</ele><time>2026-04-04T10:20:50.998Z</time></trkpt><trkpt lat="37.02367435648823" lon="-8.0129109212425"><ele>1.714285714285714</ele><time>2026-04-04T10:20:57.998Z</time></trkpt><trkpt lat="37.02365461520197" lon="-8.012829517215064"><ele>1.5714285714285714</ele><time>2026-04-04T10:21:03.998Z</time></trkpt><trkpt lat="37.02361057558178" lon="-8.012762978355697"><ele>1.4285714285714284</ele><time>2026-04-04T10:21:09.998Z</time></trkpt><trkpt lat="37.0235799983514" lon="-8.012687151557559"><ele>1.2857142857142856</ele><time>2026-04-04T10:21:14.998Z</time></trkpt><trkpt lat="37.02355430832513" lon="-8.012612379598442"><ele>1.1428571428571428</ele><time>2026-04-04T10:21:19.998Z</time></trkpt><trkpt lat="37.02352861924474" lon="-8.012526581665464"><ele>1.0</ele><time>2026-04-04T10:21:25.998Z</time></trkpt><trkpt lat="37.02349120038225" lon="-8.01245683727137"><ele>1.0</ele><time>2026-04-04T10:21:32.998Z</time></trkpt><trkpt lat="37.02346119201485" lon="-8.012379589000915"><ele>0.9999999999999999</ele><time>2026-04-04T10:21:41Z</time></trkpt><trkpt lat="37.023426078331916" lon="-8.012305318658703"><ele>1.0</ele><time>2026-04-04T10:21:46Z</time></trkpt><trkpt lat="37.02338223730103" lon="-8.01223592394619"><ele>1.0</ele><time>2026-04-04T10:21:51Z</time></trkpt><trkpt lat="37.02336760957082" lon="-8.012158729337932"><ele>0.9999999999999999</ele><time>2026-04-04T10:22:37.999Z</time></trkpt><trkpt lat="37.023339711276826" lon="-8.012065046218604"><ele>1.0</ele><time>2026-04-04T10:22:41.999Z</time></trkpt><trkpt lat="37.02330538608992" lon="-8.011987141175705"><ele>1.0</ele><time>2026-04-04T10:22:44.999Z</time></trkpt><trkpt lat="37.023272210089516" lon="-8.011902415113918"><ele>1.0</ele><time>2026-04-04T10:22:47.999Z</time></trkpt><trkpt lat="37.02323692139703" lon="-8.011812885363291"><ele>0.9999999999999999</ele><time>2026-04-04T10:22:50.999Z</time></trkpt><trkpt lat="37.02320690663471" lon="-8.01174125319148"><ele>1.0</ele><time>2026-04-04T10:22:53.999Z</time></trkpt><trkpt lat="37.02317889629353" lon="-8.011661933327966"><ele>1.0</ele><time>2026-04-04T10:22:56.999Z</time></trkpt><trkpt lat="37.02314158767488" lon="-8.011585571473134"><ele>0.9999999999999999</ele><time>2026-04-04T10:22:59.998Z</time></trkpt><trkpt lat="37.023106208769924" lon="-8.011489285162154"><ele>1.0</ele><time>2026-04-04T10:23:02.998Z</time></trkpt><trkpt lat="37.02306714874886" lon="-8.011405490496761"><ele>1.0</ele><time>2026-04-04T10:23:05.998Z</time></trkpt><trkpt lat="37.023033843255504" lon="-8.011311703065278"><ele>0.7142857142857142</ele><time>2026-04-04T10:23:08.998Z</time></trkpt><trkpt lat="37.02300395847524" lon="-8.01124159857283"><ele>0.4285714285714285</ele><time>2026-04-04T10:23:10.998Z</time></trkpt><trkpt lat="37.02297749367334" lon="-8.011169827088342"><ele>0.14285714285714285</ele><time>2026-04-04T10:23:12.998Z</time></trkpt><trkpt lat="37.02294024887553" lon="-8.01107311372631"><ele>-0.14285714285714285</ele><time>2026-04-04T10:23:15.998Z</time></trkpt><trkpt lat="37.02291454464902" lon="-8.010997922397824"><ele>-0.4285714285714285</ele><time>2026-04-04T10:23:17.998Z</time></trkpt><trkpt lat="37.0228829392881" lon="-8.010908376666016"><ele>-0.7142857142857142</ele><time>2026-04-04T10:23:19.998Z</time></trkpt><trkpt lat="37.02284228123185" lon="-8.010812204944129"><ele>-1.0</ele><time>2026-04-04T10:23:22.998Z</time></trkpt><trkpt lat="37.022814536748015" lon="-8.010741173890027"><ele>-0.9999999999999999</ele><time>2026-04-04T10:23:24.998Z</time></trkpt><trkpt lat="37.02276955709763" lon="-8.010648553497818"><ele>-1.0</ele><time>2026-04-04T10:23:27.998Z</time></trkpt><trkpt lat="37.02273219322565" lon="-8.010553589142933"><ele>-1.0</ele><time>2026-04-04T10:23:30.998Z</time></trkpt><trkpt lat="37.02269407437091" lon="-8.010458237598538"><ele>-1.0</ele><time>2026-04-04T10:23:33.998Z</time></trkpt><trkpt lat="37.02265709823044" lon="-8.010365356570153"><ele>-0.9999999999999999</ele><time>2026-04-04T10:23:36.998Z</time></trkpt><trkpt lat="37.02262108513554" lon="-8.010273014316876"><ele>-1.0</ele><time>2026-04-04T10:23:39.998Z</time></trkpt><trkpt lat="37.022586159462556" lon="-8.010195714026056"><ele>-1.0</ele><time>2026-04-04T10:23:42.998Z</time></trkpt><trkpt lat="37.02255086983318" lon="-8.010106930952952"><ele>-0.9999999999999999</ele><time>2026-04-04T10:23:47Z</time></trkpt><trkpt lat="37.0225195299381" lon="-8.010035735090808"><ele>-1.0</ele><time>2026-04-04T10:23:50Z</time></trkpt><trkpt lat="37.022482930478894" lon="-8.009959635497276"><ele>-1.0</ele><time>2026-04-04T10:23:53Z</time></trkpt><trkpt lat="37.02243813351047" lon="-8.009882403862722"><ele>-0.9999999999999999</ele><time>2026-04-04T10:23:57Z</time></trkpt><trkpt lat="37.02243365469759" lon="-8.0097909560174"><ele>-1.0</ele><time>2026-04-04T10:24:38.999Z</time></trkpt><trkpt lat="37.02240251305029" lon="-8.009721308495267"><ele>-1.0</ele><time>2026-04-04T10:24:43.999Z</time></trkpt><trkpt lat="37.02236994181657" lon="-8.009647538571944"><ele>-0.7142857142857142</ele><time>2026-04-04T10:24:48.999Z</time></trkpt><trkpt lat="37.02233799394294" lon="-8.009562092136507"><ele>-0.4285714285714285</ele><time>2026-04-04T10:24:52.999Z</time></trkpt><trkpt lat="37.02230397005793" lon="-8.0094721848799"><ele>-0.14285714285714285</ele><time>2026-04-04T10:24:56.999Z</time></trkpt><trkpt lat="37.022271523586774" lon="-8.009371667861629"><ele>0.14285714285714285</ele><time>2026-04-04T10:25:00.999Z</time></trkpt><trkpt lat="37.02223633356223" lon="-8.009297789242785"><ele>0.4285714285714285</ele><time>2026-04-04T10:25:03.998Z</time></trkpt><trkpt lat="37.02221037959965" lon="-8.009219981793485"><ele>0.7142857142857142</ele><time>2026-04-04T10:25:06.998Z</time></trkpt><trkpt lat="37.02217810111487" lon="-8.009148410192745"><ele>1.0</ele><time>2026-04-04T10:25:09.998Z</time></trkpt><trkpt lat="37.02214854242199" lon="-8.009073956384768"><ele>0.9999999999999999</ele><time>2026-04-04T10:25:12.998Z</time></trkpt><trkpt lat="37.022110591626586" lon="-8.008988178251716"><ele>1.0</ele><time>2026-04-04T10:25:15.998Z</time></trkpt><trkpt lat="37.0220719903021" lon="-8.008900457813246"><ele>1.0</ele><time>2026-04-04T10:25:18.998Z</time></trkpt><trkpt lat="37.02203667232215" lon="-8.008803902235746"><ele>1.0</ele><time>2026-04-04T10:25:21.998Z</time></trkpt><trkpt lat="37.022000721910224" lon="-8.008699633075612"><ele>0.9999999999999999</ele><time>2026-04-04T10:25:24.998Z</time></trkpt><trkpt lat="37.02195800788844" lon="-8.008598045710897"><ele>1.0</ele><time>2026-04-04T10:25:27.998Z</time></trkpt><trkpt lat="37.02191670880375" lon="-8.008502934517189"><ele>0.9999999999999999</ele><time>2026-04-04T10:25:30.998Z</time></trkpt><trkpt lat="37.021878789601544" lon="-8.008407055634743"><ele>1.0</ele><time>2026-04-04T10:25:33.998Z</time></trkpt><trkpt lat="37.02184182978368" lon="-8.008317016754843"><ele>1.0</ele><time>2026-04-04T10:25:36.998Z</time></trkpt><trkpt lat="37.02180153625756" lon="-8.008228298028467"><ele>1.0</ele><time>2026-04-04T10:25:39.998Z</time></trkpt><trkpt lat="37.02176121898396" lon="-8.008140012822894"><ele>0.9999999999999999</ele><time>2026-04-04T10:25:42.998Z</time></trkpt><trkpt lat="37.02172063819403" lon="-8.00803982448756"><ele>1.0</ele><time>2026-04-04T10:25:45.998Z</time></trkpt><trkpt lat="37.021681021079935" lon="-8.007938151473137"><ele>0.9999999999999999</ele><time>2026-04-04T10:25:48.998Z</time></trkpt><trkpt lat="37.021640258055996" lon="-8.007836556091476"><ele>1.0</ele><time>2026-04-04T10:25:52Z</time></trkpt><trkpt lat="37.021599998279285" lon="-8.007734046737141"><ele>1.0</ele><time>2026-04-04T10:25:55Z</time></trkpt><trkpt lat="37.02156146994366" lon="-8.007632923361898"><ele>1.0</ele><time>2026-04-04T10:25:58Z</time></trkpt><trkpt lat="37.0215267296813" lon="-8.007534910579407"><ele>0.9999999999999999</ele><time>2026-04-04T10:26:01Z</time></trkpt><trkpt lat="37.021485934613274" lon="-8.007452269779964"><ele>1.0</ele><time>2026-04-04T10:26:04Z</time></trkpt><trkpt lat="37.02144973096887" lon="-8.007362161711875"><ele>0.9999999999999999</ele><time>2026-04-04T10:26:07Z</time></trkpt><trkpt lat="37.02141329090248" lon="-8.007274443417156"><ele>1.0</ele><time>2026-04-04T10:26:10Z</time></trkpt><trkpt lat="37.02138023884189" lon="-8.007178574315374"><ele>1.0</ele><time>2026-04-04T10:26:13Z</time></trkpt><trkpt lat="37.0213422908539" lon="-8.007086947408203"><ele>1.0</ele><time>2026-04-04T10:26:16Z</time></trkpt><trkpt lat="37.02130745751995" lon="-8.00699969814261"><ele>0.9999999999999999</ele><time>2026-04-04T10:26:19Z</time></trkpt><trkpt lat="37.02128187749665" lon="-8.006925403593003"><ele>1.0</ele><time>2026-04-04T10:26:20.999Z</time></trkpt><trkpt lat="37.021247124993344" lon="-8.006830384960285"><ele>0.9999999999999999</ele><time>2026-04-04T10:26:23.999Z</time></trkpt><trkpt lat="37.021208185243225" lon="-8.006738087744171"><ele>1.0</ele><time>2026-04-04T10:26:26.999Z</time></trkpt><trkpt lat="37.021170137614455" lon="-8.00664472294197"><ele>1.0</ele><time>2026-04-04T10:26:30.999Z</time></trkpt><trkpt lat="37.02113436375998" lon="-8.006560124440389"><ele>1.0</ele><time>2026-04-04T10:26:33.999Z</time></trkpt><trkpt lat="37.02109602012605" lon="-8.006462779495363"><ele>0.9999999999999999</ele><time>2026-04-04T10:26:36.999Z</time></trkpt><trkpt lat="37.021058829441245" lon="-8.00635632874462"><ele>1.0</ele><time>2026-04-04T10:26:39.999Z</time></trkpt><trkpt lat="37.02101592281101" lon="-8.006255086180092"><ele>0.8</ele><time>2026-04-04T10:26:42.999Z</time></trkpt><trkpt lat="37.02097484762185" lon="-8.00615205042042"><ele>0.6000000000000001</ele><time>2026-04-04T10:26:45.999Z</time></trkpt><trkpt lat="37.02093738719117" lon="-8.0060475391707"><ele>0.4</ele><time>2026-04-04T10:26:48.999Z</time></trkpt><trkpt lat="37.020898579583445" lon="-8.005947730487572"><ele>0.2</ele><time>2026-04-04T10:26:51.999Z</time></trkpt><trkpt lat="37.0208627710799" lon="-8.00584385547171"><ele>0.0</ele><time>2026-04-04T10:26:54.999Z</time></trkpt><trkpt lat="37.02082283928709" lon="-8.005746297009393"><ele>0.16666666666666666</ele><time>2026-04-04T10:26:57.999Z</time></trkpt><trkpt lat="37.02078609803679" lon="-8.00565209957789"><ele>0.3333333333333333</ele><time>2026-04-04T10:27:01Z</time></trkpt><trkpt lat="37.020760923364136" lon="-8.005566440829615"><ele>0.5</ele><time>2026-04-04T10:27:04Z</time></trkpt><trkpt lat="37.02072664798452" lon="-8.0054915426776"><ele>0.6666666666666666</ele><time>2026-04-04T10:27:06.999Z</time></trkpt><trkpt lat="37.02069189332023" lon="-8.005405071891808"><ele>0.8333333333333333</ele><time>2026-04-04T10:27:09.999Z</time></trkpt><trkpt lat="37.02065326897725" lon="-8.005313668888226"><ele>1.0</ele><time>2026-04-04T10:27:12.999Z</time></trkpt><trkpt lat="37.020612572556864" lon="-8.005216979494126"><ele>1.0</ele><time>2026-04-04T10:27:15.999Z</time></trkpt><trkpt lat="37.020585162393466" lon="-8.005141730275344"><ele>0.9999999999999999</ele><time>2026-04-04T10:27:17.999Z</time></trkpt><trkpt lat="37.02055172086674" lon="-8.005063581802059"><ele>1.0</ele><time>2026-04-04T10:27:20.999Z</time></trkpt><trkpt lat="37.02051750122403" lon="-8.004968098186378"><ele>1.0</ele><time>2026-04-04T10:27:23.999Z</time></trkpt><trkpt lat="37.02048771123813" lon="-8.004895672492585"><ele>0.9999999999999999</ele><time>2026-04-04T10:27:25.999Z</time></trkpt><trkpt lat="37.020456565315484" lon="-8.004815809293923"><ele>1.0</ele><time>2026-04-04T10:27:28.999Z</time></trkpt><trkpt lat="37.02042175080685" lon="-8.004728792143847"><ele>1.0</ele><time>2026-04-04T10:27:31.999Z</time></trkpt><trkpt lat="37.02039100018723" lon="-8.004657446265856"><ele>0.8333333333333333</ele><time>2026-04-04T10:27:33.999Z</time></trkpt><trkpt lat="37.02035629874259" lon="-8.00457569618498"><ele>0.6666666666666666</ele><time>2026-04-04T10:27:36.999Z</time></trkpt><trkpt lat="37.02031891992824" lon="-8.004480667763168"><ele>0.5</ele><time>2026-04-04T10:27:39.999Z</time></trkpt><trkpt lat="37.020285151349064" lon="-8.00438795865305"><ele>0.3333333333333333</ele><time>2026-04-04T10:27:42.999Z</time></trkpt><trkpt lat="37.02025256706219" lon="-8.004307593399945"><ele>0.16666666666666666</ele><time>2026-04-04T10:27:45.999Z</time></trkpt><trkpt lat="37.02021163233552" lon="-8.00421695927456"><ele>0.0</ele><time>2026-04-04T10:27:48.999Z</time></trkpt><trkpt lat="37.02017434305851" lon="-8.004112514604532"><ele>-0.16666666666666666</ele><time>2026-04-04T10:27:51.999Z</time></trkpt><trkpt lat="37.020140973498144" lon="-8.004015712409851"><ele>-0.3333333333333333</ele><time>2026-04-04T10:27:54.999Z</time></trkpt><trkpt lat="37.02010331718776" lon="-8.0039167805127"><ele>-0.5</ele><time>2026-04-04T10:27:58.001Z</time></trkpt><trkpt lat="37.02006218076818" lon="-8.003827541720737"><ele>-0.6666666666666666</ele><time>2026-04-04T10:28:01.001Z</time></trkpt><trkpt lat="37.02002767489517" lon="-8.003736298435607"><ele>-0.8333333333333333</ele><time>2026-04-04T10:28:04.001Z</time></trkpt><trkpt lat="37.01999351281137" lon="-8.0036544384989"><ele>-1.0</ele><time>2026-04-04T10:28:07.001Z</time></trkpt><trkpt lat="37.01995767892781" lon="-8.003566635004931"><ele>-0.6666666666666666</ele><time>2026-04-04T10:28:10.001Z</time></trkpt><trkpt lat="37.01991946436136" lon="-8.003463992639537"><ele>-0.3333333333333333</ele><time>2026-04-04T10:28:13.001Z</time></trkpt><trkpt lat="37.01987789248373" lon="-8.003358812692442"><ele>0.0</ele><time>2026-04-04T10:28:16.001Z</time></trkpt><trkpt lat="37.01985314221478" lon="-8.00328415817365"><ele>0.3333333333333333</ele><time>2026-04-04T10:28:18.001Z</time></trkpt><trkpt lat="37.01980508472152" lon="-8.003172731761296"><ele>0.6666666666666666</ele><time>2026-04-04T10:28:22.001Z</time></trkpt><trkpt lat="37.01976966614209" lon="-8.003083379424508"><ele>1.0</ele><time>2026-04-04T10:28:25Z</time></trkpt><trkpt lat="37.01973247140479" lon="-8.002991217240432"><ele>1.0</ele><time>2026-04-04T10:28:28Z</time></trkpt><trkpt lat="37.01969436080021" lon="-8.002898347802121"><ele>0.9999999999999999</ele><time>2026-04-04T10:28:31Z</time></trkpt><trkpt lat="37.01966191464922" lon="-8.002830722076252"><ele>1.0</ele><time>2026-04-04T10:28:33Z</time></trkpt><trkpt lat="37.019627784174524" lon="-8.002745680204308"><ele>1.0</ele><time>2026-04-04T10:28:36Z</time></trkpt><trkpt lat="37.019593107268186" lon="-8.002666538227535"><ele>0.9999999999999999</ele><time>2026-04-04T10:28:39Z</time></trkpt><trkpt lat="37.019555854220634" lon="-8.00257966080846"><ele>1.0</ele><time>2026-04-04T10:28:42Z</time></trkpt><trkpt lat="37.01952427728387" lon="-8.002505384606982"><ele>1.0</ele><time>2026-04-04T10:28:45Z</time></trkpt><trkpt lat="37.019495668596036" lon="-8.002425456807833"><ele>0.8333333333333333</ele><time>2026-04-04T10:28:48Z</time></trkpt><trkpt lat="37.01946759749565" lon="-8.002347249902362"><ele>0.6666666666666666</ele><time>2026-04-04T10:28:51Z</time></trkpt><trkpt lat="37.01943164326067" lon="-8.002260640528299"><ele>0.5</ele><time>2026-04-04T10:28:54Z</time></trkpt><trkpt lat="37.01939251520488" lon="-8.002182592199325"><ele>0.3333333333333333</ele><time>2026-04-04T10:28:57Z</time></trkpt><trkpt lat="37.019352064677626" lon="-8.002083543283396"><ele>0.16666666666666666</ele><time>2026-04-04T10:29:00Z</time></trkpt><trkpt lat="37.01931721450689" lon="-8.001988887891793"><ele>0.0</ele><time>2026-04-04T10:29:03Z</time></trkpt><trkpt lat="37.019279753471515" lon="-8.001889631729282"><ele>0.0</ele><time>2026-04-04T10:29:06Z</time></trkpt><trkpt lat="37.019241196020076" lon="-8.00178755839532"><ele>0.0</ele><time>2026-04-04T10:29:09Z</time></trkpt><trkpt lat="37.01920370951627" lon="-8.001697004571852"><ele>0.0</ele><time>2026-04-04T10:29:11.999Z</time></trkpt><trkpt lat="37.01916315107828" lon="-8.001611127702175"><ele>0.0</ele><time>2026-04-04T10:29:14.999Z</time></trkpt><trkpt lat="37.019132398968544" lon="-8.001512089915542"><ele>0.0</ele><time>2026-04-04T10:29:17.999Z</time></trkpt><trkpt lat="37.01909406565332" lon="-8.00142145733516"><ele>0.0</ele><time>2026-04-04T10:29:20.999Z</time></trkpt><trkpt lat="37.01906478447459" lon="-8.001336189327233"><ele>0.0</ele><time>2026-04-04T10:29:23.999Z</time></trkpt><trkpt lat="37.01902851050702" lon="-8.001251834347471"><ele>0.0</ele><time>2026-04-04T10:29:27.999Z</time></trkpt><trkpt lat="37.01898479239171" lon="-8.00115942968369"><ele>0.0</ele><time>2026-04-04T10:29:30.999Z</time></trkpt><trkpt lat="37.01895497201965" lon="-8.00108691523633"><ele>0.0</ele><time>2026-04-04T10:29:33.999Z</time></trkpt><trkpt lat="37.01892393598811" lon="-8.001006882626672"><ele>0.0</ele><time>2026-04-04T10:29:36.999Z</time></trkpt><trkpt lat="37.01889487395614" lon="-8.000908358395211"><ele>0.0</ele><time>2026-04-04T10:29:39.999Z</time></trkpt><trkpt lat="37.01886900239718" lon="-8.000806476285511"><ele>0.16666666666666666</ele><time>2026-04-04T10:29:43.999Z</time></trkpt><trkpt lat="37.018842690317655" lon="-8.000699401729884"><ele>0.3333333333333333</ele><time>2026-04-04T10:29:46.999Z</time></trkpt><trkpt lat="37.018818932113234" lon="-8.000602992619807"><ele>0.5</ele><time>2026-04-04T10:29:49.999Z</time></trkpt><trkpt lat="37.01879824068436" lon="-8.000514622677384"><ele>0.6666666666666666</ele><time>2026-04-04T10:29:52.999Z</time></trkpt><trkpt lat="37.018772929846655" lon="-8.000416399931355"><ele>0.8333333333333333</ele><time>2026-04-04T10:29:55.999Z</time></trkpt><trkpt lat="37.01875396994277" lon="-8.000317605283442"><ele>1.0</ele><time>2026-04-04T10:29:58.998Z</time></trkpt><trkpt lat="37.018720979865535" lon="-8.000226502286724"><ele>0.9999999999999999</ele><time>2026-04-04T10:30:01.998Z</time></trkpt><trkpt lat="37.018705182743474" lon="-8.000128509877243"><ele>1.0</ele><time>2026-04-04T10:30:05.001Z</time></trkpt><trkpt lat="37.018681702494405" lon="-8.00005011921451"><ele>1.0</ele><time>2026-04-04T10:30:08.001Z</time></trkpt><trkpt lat="37.01865554458861" lon="-7.999967738006596"><ele>1.0</ele><time>2026-04-04T10:30:12.001Z</time></trkpt><trkpt lat="37.01862069784638" lon="-7.999850053917118"><ele>0.9999999999999999</ele><time>2026-04-04T10:30:15.001Z</time></trkpt><trkpt lat="37.018601132958906" lon="-7.999738738050948"><ele>1.0</ele><time>2026-04-04T10:30:18.001Z</time></trkpt><trkpt lat="37.01857330599686" lon="-7.9996436804824995"><ele>0.9999999999999999</ele><time>2026-04-04T10:30:21.001Z</time></trkpt><trkpt lat="37.01854865685145" lon="-7.999539791910606"><ele>1.0</ele><time>2026-04-04T10:30:25Z</time></trkpt><trkpt lat="37.018519945027066" lon="-7.9994422037299815"><ele>1.0</ele><time>2026-04-04T10:30:28Z</time></trkpt><trkpt lat="37.01850209663574" lon="-7.999359882554365"><ele>1.0</ele><time>2026-04-04T10:30:31Z</time></trkpt><trkpt lat="37.018477643145225" lon="-7.999260684633054"><ele>0.9999999999999999</ele><time>2026-04-04T10:30:34Z</time></trkpt><trkpt lat="37.0184596375253" lon="-7.999166512531335"><ele>1.0</ele><time>2026-04-04T10:30:38Z</time></trkpt><trkpt lat="37.018436853200605" lon="-7.999044724589318"><ele>0.9999999999999999</ele><time>2026-04-04T10:30:41Z</time></trkpt><trkpt lat="37.018413763862185" lon="-7.998950127240193"><ele>1.0</ele><time>2026-04-04T10:30:44Z</time></trkpt><trkpt lat="37.018381849076334" lon="-7.99885745931528"><ele>1.0</ele><time>2026-04-04T10:30:47Z</time></trkpt><trkpt lat="37.01835961504209" lon="-7.998761586612656"><ele>1.0</ele><time>2026-04-04T10:30:50Z</time></trkpt><trkpt lat="37.01833754727818" lon="-7.998682281986935"><ele>0.9999999999999999</ele><time>2026-04-04T10:30:53Z</time></trkpt><trkpt lat="37.01830995151861" lon="-7.998597869761916"><ele>1.0</ele><time>2026-04-04T10:30:56Z</time></trkpt><trkpt lat="37.01828655019262" lon="-7.998506458966865"><ele>0.8571428571428571</ele><time>2026-04-04T10:30:59Z</time></trkpt><trkpt lat="37.01826621652991" lon="-7.998421236995695"><ele>0.7142857142857142</ele><time>2026-04-04T10:31:02Z</time></trkpt><trkpt lat="37.01824062471771" lon="-7.998327545951971"><ele>0.5714285714285714</ele><time>2026-04-04T10:31:05Z</time></trkpt><trkpt lat="37.0182184866223" lon="-7.9982375692204455"><ele>0.42857142857142855</ele><time>2026-04-04T10:31:08Z</time></trkpt><trkpt lat="37.01820277183221" lon="-7.998145103281152"><ele>0.2857142857142857</ele><time>2026-04-04T10:31:10.999Z</time></trkpt><trkpt lat="37.01817491323543" lon="-7.998055049892402"><ele>0.14285714285714285</ele><time>2026-04-04T10:31:13.999Z</time></trkpt><trkpt lat="37.018156532107554" lon="-7.997976797745744"><ele>0.0</ele><time>2026-04-04T10:31:16.999Z</time></trkpt><trkpt lat="37.01813695321324" lon="-7.9978842921585125"><ele>-0.16666666666666666</ele><time>2026-04-04T10:31:19.999Z</time></trkpt><trkpt lat="37.018109630776536" lon="-7.9977923029820275"><ele>-0.3333333333333333</ele><time>2026-04-04T10:31:22.999Z</time></trkpt><trkpt lat="37.0180865020064" lon="-7.997698483495732"><ele>-0.5</ele><time>2026-04-04T10:31:25.999Z</time></trkpt><trkpt lat="37.01806450139274" lon="-7.997606556783858"><ele>-0.6666666666666666</ele><time>2026-04-04T10:31:28.999Z</time></trkpt><trkpt lat="37.01804463190152" lon="-7.9975264374654715"><ele>-0.8333333333333333</ele><time>2026-04-04T10:31:31.999Z</time></trkpt><trkpt lat="37.01802121780093" lon="-7.997429933820297"><ele>-1.0</ele><time>2026-04-04T10:31:34.999Z</time></trkpt><trkpt lat="37.017995669231" lon="-7.99733483784732"><ele>-1.0</ele><time>2026-04-04T10:31:37.999Z</time></trkpt><trkpt lat="37.01797600815985" lon="-7.9972547379564745"><ele>-0.9999999999999999</ele><time>2026-04-04T10:31:40.999Z</time></trkpt><trkpt lat="37.01795479235642" lon="-7.997172062769897"><ele>-1.0</ele><time>2026-04-04T10:31:43.999Z</time></trkpt><trkpt lat="37.01793799227116" lon="-7.997083783289978"><ele>-1.0</ele><time>2026-04-04T10:31:46.999Z</time></trkpt><trkpt lat="37.017914556410865" lon="-7.996999861113516"><ele>-0.9999999999999999</ele><time>2026-04-04T10:31:49.999Z</time></trkpt><trkpt lat="37.01789502702319" lon="-7.996915976979966"><ele>-1.0</ele><time>2026-04-04T10:31:52.999Z</time></trkpt><trkpt lat="37.017870674768226" lon="-7.996820367553365"><ele>-1.0</ele><time>2026-04-04T10:31:56.998Z</time></trkpt><trkpt lat="37.01784341759837" lon="-7.99673668746746"><ele>-0.9999999999999999</ele><time>2026-04-04T10:32:00.998Z</time></trkpt><trkpt lat="37.01789471925385" lon="-7.9968050943563025"><ele>-1.0</ele><time>2026-04-04T10:33:07Z</time></trkpt><trkpt lat="37.01794770619867" lon="-7.9968567418235965"><ele>-1.0</ele><time>2026-04-04T10:33:12.999Z</time></trkpt><trkpt lat="37.018029934156" lon="-7.996862395944765"><ele>-1.0</ele><time>2026-04-04T10:33:16.999Z</time></trkpt><trkpt lat="37.01811254105659" lon="-7.996875873670346"><ele>-0.9999999999999999</ele><time>2026-04-04T10:33:19.999Z</time></trkpt><trkpt lat="37.018178311607755" lon="-7.99687389461021"><ele>-1.0</ele><time>2026-04-04T10:33:22.999Z</time></trkpt><trkpt lat="37.01826380699688" lon="-7.996868989861448"><ele>-0.49999999999999994</ele><time>2026-04-04T10:33:25.999Z</time></trkpt><trkpt lat="37.018327473661934" lon="-7.996867216031952"><ele>0.0</ele><time>2026-04-04T10:33:27.999Z</time></trkpt><trkpt lat="37.018392231616104" lon="-7.996869788386262"><ele>0.5</ele><time>2026-04-04T10:33:29.999Z</time></trkpt><trkpt lat="37.01847941008692" lon="-7.9968685262043975"><ele>1.0</ele><time>2026-04-04T10:33:32.999Z</time></trkpt><trkpt lat="37.01855650765403" lon="-7.996875009510887"><ele>1.4999999999999998</ele><time>2026-04-04T10:33:35.999Z</time></trkpt><trkpt lat="37.018636724859284" lon="-7.996875435560367"><ele>2.0</ele><time>2026-04-04T10:33:38.999Z</time></trkpt><trkpt lat="37.01873149425231" lon="-7.996876845662851"><ele>2.0</ele><time>2026-04-04T10:33:41.999Z</time></trkpt><trkpt lat="37.018798399248766" lon="-7.9968859382182975"><ele>1.9999999999999998</ele><time>2026-04-04T10:33:43.999Z</time></trkpt><trkpt lat="37.01886480215099" lon="-7.99688960130425"><ele>2.0</ele><time>2026-04-04T10:33:45.999Z</time></trkpt><trkpt lat="37.018943071234666" lon="-7.996886500033646"><ele>2.0</ele><time>2026-04-04T10:33:47.999Z</time></trkpt><trkpt lat="37.01901738016798" lon="-7.996894879459116"><ele>1.9999999999999998</ele><time>2026-04-04T10:33:49.999Z</time></trkpt><trkpt lat="37.01908212320066" lon="-7.996887636292072"><ele>2.0</ele><time>2026-04-04T10:33:51.999Z</time></trkpt><trkpt lat="37.019171400767746" lon="-7.9969069525976755"><ele>2.0</ele><time>2026-04-04T10:33:54.999Z</time></trkpt><trkpt lat="37.01923573160453" lon="-7.996909069273553"><ele>2.333333333333333</ele><time>2026-04-04T10:33:56.998Z</time></trkpt><trkpt lat="37.01933061782432" lon="-7.996912658424932"><ele>2.6666666666666665</ele><time>2026-04-04T10:33:59.998Z</time></trkpt><trkpt lat="37.01940397007036" lon="-7.996920643187531"><ele>3.0</ele><time>2026-04-04T10:34:01.998Z</time></trkpt><trkpt lat="37.01947209228768" lon="-7.996914866638147"><ele>3.333333333333333</ele><time>2026-04-04T10:34:03.998Z</time></trkpt><trkpt lat="37.01956484425735" lon="-7.996919605530889"><ele>3.6666666666666665</ele><time>2026-04-04T10:34:06.998Z</time></trkpt><trkpt lat="37.019644393650346" lon="-7.996917068544518"><ele>4.0</ele><time>2026-04-04T10:34:09.998Z</time></trkpt><trkpt lat="37.01972578068427" lon="-7.996913665121362"><ele>4.0</ele><time>2026-04-04T10:34:12.998Z</time></trkpt><trkpt lat="37.01978944271623" lon="-7.996919428152798"><ele>3.9999999999999996</ele><time>2026-04-04T10:34:14.998Z</time></trkpt><trkpt lat="37.0198751915494" lon="-7.996923038926404"><ele>4.0</ele><time>2026-04-04T10:34:18Z</time></trkpt><trkpt lat="37.019966420070936" lon="-7.996930274940982"><ele>4.0</ele><time>2026-04-04T10:34:21Z</time></trkpt><trkpt lat="37.02003205664768" lon="-7.996931855357795"><ele>3.9999999999999996</ele><time>2026-04-04T10:34:23Z</time></trkpt><trkpt lat="37.02009798677305" lon="-7.996933161351313"><ele>4.0</ele><time>2026-04-04T10:34:25Z</time></trkpt><trkpt lat="37.02016612982207" lon="-7.996938004879527"><ele>4.0</ele><time>2026-04-04T10:34:27Z</time></trkpt><trkpt lat="37.02023517299538" lon="-7.996938279407335"><ele>3.714285714285714</ele><time>2026-04-04T10:34:29Z</time></trkpt><trkpt lat="37.02030720616811" lon="-7.996937842226206"><ele>3.428571428571428</ele><time>2026-04-04T10:34:31Z</time></trkpt><trkpt lat="37.02038226152087" lon="-7.996942573387391"><ele>3.142857142857143</ele><time>2026-04-04T10:34:33Z</time></trkpt><trkpt lat="37.020453293515736" lon="-7.996944996834878"><ele>2.8571428571428568</ele><time>2026-04-04T10:34:35Z</time></trkpt><trkpt lat="37.020519154337315" lon="-7.996945336239471"><ele>2.571428571428571</ele><time>2026-04-04T10:34:37Z</time></trkpt><trkpt lat="37.02060512528529" lon="-7.996957416913447"><ele>2.2857142857142856</ele><time>2026-04-04T10:34:40Z</time></trkpt><trkpt lat="37.02067477687258" lon="-7.996961746177628"><ele>2.0</ele><time>2026-04-04T10:34:42Z</time></trkpt><trkpt lat="37.02074932048218" lon="-7.996963755015412"><ele>1.4999999999999998</ele><time>2026-04-04T10:34:44Z</time></trkpt><trkpt lat="37.0208282597887" lon="-7.996958427565724"><ele>1.0</ele><time>2026-04-04T10:34:46Z</time></trkpt><trkpt lat="37.02090232619897" lon="-7.996969644934027"><ele>0.5</ele><time>2026-04-04T10:34:48Z</time></trkpt><trkpt lat="37.02097208207134" lon="-7.99696953497309"><ele>0.0</ele><time>2026-04-04T10:34:50Z</time></trkpt><trkpt lat="37.02103769765341" lon="-7.9969750846065155"><ele>-0.49999999999999994</ele><time>2026-04-04T10:34:52Z</time></trkpt><trkpt lat="37.0211341487666" lon="-7.996983975080552"><ele>-1.0</ele><time>2026-04-04T10:34:55Z</time></trkpt><trkpt lat="37.02121053801362" lon="-7.9969825047070895"><ele>-0.9999999999999999</ele><time>2026-04-04T10:34:57Z</time></trkpt><trkpt lat="37.02129020689598" lon="-7.996982809735152"><ele>-1.0</ele><time>2026-04-04T10:34:59Z</time></trkpt><trkpt lat="37.021362389415636" lon="-7.99697675383486"><ele>-1.0</ele><time>2026-04-04T10:35:01Z</time></trkpt><trkpt lat="37.0214666990777" lon="-7.996989190598088"><ele>-1.0</ele><time>2026-04-04T10:35:04Z</time></trkpt><trkpt lat="37.021541288826306" lon="-7.996985944195316"><ele>-0.9999999999999999</ele><time>2026-04-04T10:35:05.999Z</time></trkpt><trkpt lat="37.02161332101783" lon="-7.996988494567758"><ele>-1.0</ele><time>2026-04-04T10:35:07.999Z</time></trkpt><trkpt lat="37.0216789095073" lon="-7.996988558900683"><ele>-1.1666666666666665</ele><time>2026-04-04T10:35:09.999Z</time></trkpt><trkpt lat="37.02177054083539" lon="-7.996990782546643"><ele>-1.3333333333333333</ele><time>2026-04-04T10:35:12.999Z</time></trkpt><trkpt lat="37.02185442841271" lon="-7.996991186360512"><ele>-1.5</ele><time>2026-04-04T10:35:15.999Z</time></trkpt><trkpt lat="37.021918221093514" lon="-7.996994242104955"><ele>-1.6666666666666665</ele><time>2026-04-04T10:35:17.999Z</time></trkpt><trkpt lat="37.02199076329939" lon="-7.996995913922807"><ele>-1.8333333333333333</ele><time>2026-04-04T10:35:19.999Z</time></trkpt><trkpt lat="37.02206957831752" lon="-7.996996316105922"><ele>-2.0</ele><time>2026-04-04T10:35:21.999Z</time></trkpt><trkpt lat="37.02214254716984" lon="-7.997000679721718"><ele>-1.9999999999999998</ele><time>2026-04-04T10:35:23.999Z</time></trkpt><trkpt lat="37.02220968422586" lon="-7.997002627522025"><ele>-2.0</ele><time>2026-04-04T10:35:25.999Z</time></trkpt><trkpt lat="37.02230157927929" lon="-7.997012266196633"><ele>-2.0</ele><time>2026-04-04T10:35:28.999Z</time></trkpt><trkpt lat="37.022384460192825" lon="-7.99700989905376"><ele>-2.0</ele><time>2026-04-04T10:35:31.999Z</time></trkpt><trkpt lat="37.02246562286436" lon="-7.99701189002867"><ele>-1.9999999999999998</ele><time>2026-04-04T10:35:34.999Z</time></trkpt><trkpt lat="37.022528813645124" lon="-7.997014962794134"><ele>-2.0</ele><time>2026-04-04T10:35:36.999Z</time></trkpt><trkpt lat="37.02259655488797" lon="-7.997009658661208"><ele>-1.7142857142857142</ele><time>2026-04-04T10:35:38.999Z</time></trkpt><trkpt lat="37.02266421526231" lon="-7.997005057645572"><ele>-1.4285714285714284</ele><time>2026-04-04T10:35:40.999Z</time></trkpt><trkpt lat="37.02272768022367" lon="-7.997005083884524"><ele>-1.1428571428571428</ele><time>2026-04-04T10:35:42.999Z</time></trkpt><trkpt lat="37.02279142736429" lon="-7.99700771987074"><ele>-0.8571428571428571</ele><time>2026-04-04T10:35:44.999Z</time></trkpt><trkpt lat="37.02285485019149" lon="-7.99700735652437"><ele>-0.5714285714285714</ele><time>2026-04-04T10:35:46.999Z</time></trkpt><trkpt lat="37.02291833009393" lon="-7.997007373193199"><ele>-0.2857142857142857</ele><time>2026-04-04T10:35:48.999Z</time></trkpt><trkpt lat="37.02298509208276" lon="-7.997006518935263"><ele>0.0</ele><time>2026-04-04T10:35:50.999Z</time></trkpt><trkpt lat="37.023052173405006" lon="-7.99700581040888"><ele>0.0</ele><time>2026-04-04T10:35:52.998Z</time></trkpt><trkpt lat="37.02312671131508" lon="-7.997006902545334"><ele>0.0</ele><time>2026-04-04T10:35:54.998Z</time></trkpt><trkpt lat="37.02319978188354" lon="-7.997011211446509"><ele>0.0</ele><time>2026-04-04T10:35:56.998Z</time></trkpt><trkpt lat="37.02327266244366" lon="-7.997014067391219"><ele>0.0</ele><time>2026-04-04T10:35:58.998Z</time></trkpt><trkpt lat="37.02334145661659" lon="-7.997013939713278"><ele>0.0</ele><time>2026-04-04T10:36:00.998Z</time></trkpt><trkpt lat="37.02341297927182" lon="-7.997015130725696"><ele>0.0</ele><time>2026-04-04T10:36:03.998Z</time></trkpt><trkpt lat="37.0235046552924" lon="-7.997024903702785"><ele>0.0</ele><time>2026-04-04T10:36:06.998Z</time></trkpt><trkpt lat="37.02357375998995" lon="-7.997037638166861"><ele>0.0</ele><time>2026-04-04T10:36:08.998Z</time></trkpt><trkpt lat="37.023664269748316" lon="-7.997035974910103"><ele>0.0</ele><time>2026-04-04T10:36:10.998Z</time></trkpt><trkpt lat="37.02374278800661" lon="-7.997038053183648"><ele>0.0</ele><time>2026-04-04T10:36:12.998Z</time></trkpt><trkpt lat="37.023825446633275" lon="-7.997037762232469"><ele>0.0</ele><time>2026-04-04T10:36:14.998Z</time></trkpt><trkpt lat="37.023898679460295" lon="-7.997044204054278"><ele>0.0</ele><time>2026-04-04T10:36:16.998Z</time></trkpt><trkpt lat="37.023967815335965" lon="-7.997040777765583"><ele>0.0</ele><time>2026-04-04T10:36:18.998Z</time></trkpt><trkpt lat="37.02403683857559" lon="-7.997046100259077"><ele>0.0</ele><time>2026-04-04T10:36:21Z</time></trkpt><trkpt lat="37.02410488597025" lon="-7.997050387277511"><ele>0.0</ele><time>2026-04-04T10:36:23Z</time></trkpt><trkpt lat="37.024170416781146" lon="-7.997058916702982"><ele>0.0</ele><time>2026-04-04T10:36:25Z</time></trkpt><trkpt lat="37.02426681358197" lon="-7.997060768469894"><ele>0.0</ele><time>2026-04-04T10:36:28Z</time></trkpt><trkpt lat="37.02433462477798" lon="-7.9970642728871475"><ele>0.0</ele><time>2026-04-04T10:36:30Z</time></trkpt><trkpt lat="37.02439977680678" lon="-7.997064146267913"><ele>0.0</ele><time>2026-04-04T10:36:32Z</time></trkpt><trkpt lat="37.024490733454286" lon="-7.997067570682646"><ele>0.3333333333333333</ele><time>2026-04-04T10:36:35Z</time></trkpt><trkpt lat="37.02456051110378" lon="-7.997070867763493"><ele>0.6666666666666666</ele><time>2026-04-04T10:36:37Z</time></trkpt><trkpt lat="37.024646808014836" lon="-7.997072203901013"><ele>1.0</ele><time>2026-04-04T10:36:40Z</time></trkpt><trkpt lat="37.02471671614326" lon="-7.997072580655503"><ele>1.3333333333333333</ele><time>2026-04-04T10:36:42Z</time></trkpt><trkpt lat="37.02478639285115" lon="-7.997069659205059"><ele>1.6666666666666665</ele><time>2026-04-04T10:36:44Z</time></trkpt><trkpt lat="37.02485197762889" lon="-7.9970779394036375"><ele>2.0</ele><time>2026-04-04T10:36:46Z</time></trkpt><trkpt lat="37.02494299464041" lon="-7.9970770321798526"><ele>1.6666666666666665</ele><time>2026-04-04T10:36:49Z</time></trkpt><trkpt lat="37.02503773984703" lon="-7.997080196669721"><ele>1.3333333333333333</ele><time>2026-04-04T10:36:52Z</time></trkpt><trkpt lat="37.025111099377426" lon="-7.997086514321989"><ele>1.0</ele><time>2026-04-04T10:36:54Z</time></trkpt><trkpt lat="37.025185732050275" lon="-7.9970846500067205"><ele>0.6666666666666666</ele><time>2026-04-04T10:36:56Z</time></trkpt><trkpt lat="37.025262722686946" lon="-7.997090923507565"><ele>0.3333333333333333</ele><time>2026-04-04T10:36:58Z</time></trkpt><trkpt lat="37.02533674946235" lon="-7.997090907751506"><ele>0.0</ele><time>2026-04-04T10:37:00Z</time></trkpt><trkpt lat="37.025404565445" lon="-7.997089873251316"><ele>0.0</ele><time>2026-04-04T10:37:01.999Z</time></trkpt><trkpt lat="37.025491379153976" lon="-7.997086444469495"><ele>0.0</ele><time>2026-04-04T10:37:04.999Z</time></trkpt><trkpt lat="37.02558699966817" lon="-7.997088993038179"><ele>0.0</ele><time>2026-04-04T10:37:07.999Z</time></trkpt><trkpt lat="37.02565551096779" lon="-7.997088038360881"><ele>0.0</ele><time>2026-04-04T10:37:09.999Z</time></trkpt><trkpt lat="37.02572287802939" lon="-7.9970945185902735"><ele>0.0</ele><time>2026-04-04T10:37:11.999Z</time></trkpt><trkpt lat="37.02578690135444" lon="-7.997099087238719"><ele>0.0</ele><time>2026-04-04T10:37:13.999Z</time></trkpt><trkpt lat="37.025855382747146" lon="-7.997092791570401"><ele>0.3333333333333333</ele><time>2026-04-04T10:37:15.999Z</time></trkpt><trkpt lat="37.02592254367846" lon="-7.997088097498531"><ele>0.6666666666666666</ele><time>2026-04-04T10:37:17.999Z</time></trkpt><trkpt lat="37.02601496683483" lon="-7.997104336931337"><ele>1.0</ele><time>2026-04-04T10:37:20.999Z</time></trkpt><trkpt lat="37.02610246197021" lon="-7.99710191349032"><ele>1.3333333333333333</ele><time>2026-04-04T10:37:23.999Z</time></trkpt><trkpt lat="37.02616699395322" lon="-7.9971026942710814"><ele>1.6666666666666665</ele><time>2026-04-04T10:37:25.999Z</time></trkpt><trkpt lat="37.02623787806384" lon="-7.997117136735444"><ele>2.0</ele><time>2026-04-04T10:37:27.999Z</time></trkpt><trkpt lat="37.026325440916686" lon="-7.997109603845292"><ele>1.9999999999999998</ele><time>2026-04-04T10:37:30.999Z</time></trkpt><trkpt lat="37.02641656489688" lon="-7.997111341662227"><ele>2.0</ele><time>2026-04-04T10:37:33.999Z</time></trkpt><trkpt lat="37.026505454988865" lon="-7.997107495851878"><ele>2.0</ele><time>2026-04-04T10:37:36.999Z</time></trkpt><trkpt lat="37.02659843847272" lon="-7.997114452058734"><ele>2.0</ele><time>2026-04-04T10:37:39.999Z</time></trkpt><trkpt lat="37.026663874628575" lon="-7.997118790207854"><ele>1.9999999999999998</ele><time>2026-04-04T10:37:41.999Z</time></trkpt><trkpt lat="37.02673649578961" lon="-7.997120798888481"><ele>2.0</ele><time>2026-04-04T10:37:43.999Z</time></trkpt><trkpt lat="37.0268098443648" lon="-7.997123012202262"><ele>1.4999999999999998</ele><time>2026-04-04T10:37:45.999Z</time></trkpt><trkpt lat="37.02688668472898" lon="-7.997125813542864"><ele>1.0</ele><time>2026-04-04T10:37:47.999Z</time></trkpt><trkpt lat="37.02695591986834" lon="-7.997129195682034"><ele>0.5</ele><time>2026-04-04T10:37:49.999Z</time></trkpt><trkpt lat="37.02702560175692" lon="-7.997122192478144"><ele>0.0</ele><time>2026-04-04T10:37:51.999Z</time></trkpt><trkpt lat="37.02711029494718" lon="-7.9971257927536294"><ele>-0.49999999999999994</ele><time>2026-04-04T10:37:54.998Z</time></trkpt><trkpt lat="37.027200331877424" lon="-7.99713281625455"><ele>-1.0</ele><time>2026-04-04T10:37:57.998Z</time></trkpt><trkpt lat="37.027289590458174" lon="-7.997147843793916"><ele>-0.9999999999999999</ele><time>2026-04-04T10:38:00.998Z</time></trkpt><trkpt lat="37.02738120717157" lon="-7.9971461953583995"><ele>-1.0</ele><time>2026-04-04T10:38:03.998Z</time></trkpt><trkpt lat="37.02747189356297" lon="-7.997139192888965"><ele>-1.0</ele><time>2026-04-04T10:38:06.998Z</time></trkpt><trkpt lat="37.02756184771637" lon="-7.997148619916397"><ele>-1.0</ele><time>2026-04-04T10:38:09.998Z</time></trkpt><trkpt lat="37.02763937722967" lon="-7.997153312964383"><ele>-0.9999999999999999</ele><time>2026-04-04T10:38:12.998Z</time></trkpt><trkpt lat="37.02770963870021" lon="-7.997152052432048"><ele>-1.0</ele><time>2026-04-04T10:38:15.998Z</time></trkpt><trkpt lat="37.027790358676164" lon="-7.997145221111985"><ele>-0.8571428571428571</ele><time>2026-04-04T10:38:18.998Z</time></trkpt><trkpt lat="37.02785523333953" lon="-7.997144409551237"><ele>-0.7142857142857142</ele><time>2026-04-04T10:38:20.998Z</time></trkpt><trkpt lat="37.02792605101326" lon="-7.997160602656897"><ele>-0.5714285714285714</ele><time>2026-04-04T10:38:22.998Z</time></trkpt><trkpt lat="37.02799532699107" lon="-7.9971647934862"><ele>-0.42857142857142855</ele><time>2026-04-04T10:38:24.998Z</time></trkpt><trkpt lat="37.028064893433516" lon="-7.997167316407601"><ele>-0.2857142857142857</ele><time>2026-04-04T10:38:27Z</time></trkpt><trkpt lat="37.02813218411805" lon="-7.997165915814442"><ele>-0.14285714285714285</ele><time>2026-04-04T10:38:29Z</time></trkpt><trkpt lat="37.02821863947112" lon="-7.99717401531734"><ele>0.0</ele><time>2026-04-04T10:38:32Z</time></trkpt><trkpt lat="37.028308653255856" lon="-7.99717520228539"><ele>0.0</ele><time>2026-04-04T10:38:35Z</time></trkpt><trkpt lat="37.02840392069491" lon="-7.997169521127317"><ele>0.0</ele><time>2026-04-04T10:38:38Z</time></trkpt><trkpt lat="37.02849728865599" lon="-7.997167612906033"><ele>0.0</ele><time>2026-04-04T10:38:41Z</time></trkpt><trkpt lat="37.02856215468825" lon="-7.997170511524091"><ele>0.0</ele><time>2026-04-04T10:38:43Z</time></trkpt><trkpt lat="37.028629494049085" lon="-7.99717533477119"><ele>0.0</ele><time>2026-04-04T10:38:45Z</time></trkpt><trkpt lat="37.02871763392428" lon="-7.997171645615119"><ele>0.0</ele><time>2026-04-04T10:38:48Z</time></trkpt><trkpt lat="37.028782785327046" lon="-7.9971676448774005"><ele>0.0</ele><time>2026-04-04T10:38:50Z</time></trkpt><trkpt lat="37.02884772249171" lon="-7.997175159573781"><ele>0.0</ele><time>2026-04-04T10:38:52Z</time></trkpt><trkpt lat="37.02891887238238" lon="-7.997180370274624"><ele>0.0</ele><time>2026-04-04T10:38:54Z</time></trkpt><trkpt lat="37.02901345784713" lon="-7.997178244838118"><ele>0.0</ele><time>2026-04-04T10:38:57Z</time></trkpt><trkpt lat="37.0290798594323" lon="-7.99717906187129"><ele>0.0</ele><time>2026-04-04T10:38:59Z</time></trkpt><trkpt lat="37.02914939433048" lon="-7.9971843287989195"><ele>0.0</ele><time>2026-04-04T10:39:01Z</time></trkpt><trkpt lat="37.02923841110456" lon="-7.997191867877844"><ele>0.0</ele><time>2026-04-04T10:39:04Z</time></trkpt><trkpt lat="37.02932497652727" lon="-7.997184017043162"><ele>0.0</ele><time>2026-04-04T10:39:07Z</time></trkpt><trkpt lat="37.02941320277024" lon="-7.9971819183486295"><ele>0.0</ele><time>2026-04-04T10:39:09.999Z</time></trkpt><trkpt lat="37.02950152805096" lon="-7.997185239638616"><ele>0.0</ele><time>2026-04-04T10:39:12.999Z</time></trkpt><trkpt lat="37.02956763981009" lon="-7.9971900304469274"><ele>0.0</ele><time>2026-04-04T10:39:14.999Z</time></trkpt><trkpt lat="37.029631556955124" lon="-7.997191957223059"><ele>0.0</ele><time>2026-04-04T10:39:16.999Z</time></trkpt><trkpt lat="37.02969648384307" lon="-7.997198005102919"><ele>0.0</ele><time>2026-04-04T10:39:18.999Z</time></trkpt><trkpt lat="37.02978401332999" lon="-7.997197511057757"><ele>0.0</ele><time>2026-04-04T10:39:21.999Z</time></trkpt><trkpt lat="37.029875345475695" lon="-7.997201307481817"><ele>0.0</ele><time>2026-04-04T10:39:24.999Z</time></trkpt><trkpt lat="37.02996911974074" lon="-7.997203983380448"><ele>0.0</ele><time>2026-04-04T10:39:27.999Z</time></trkpt><trkpt lat="37.0300608727226" lon="-7.997210028144735"><ele>0.0</ele><time>2026-04-04T10:39:30.999Z</time></trkpt><trkpt lat="37.030144619024256" lon="-7.997211232418254"><ele>0.0</ele><time>2026-04-04T10:39:33.999Z</time></trkpt><trkpt lat="37.030225910900995" lon="-7.9972064888237036"><ele>0.5</ele><time>2026-04-04T10:39:36.999Z</time></trkpt><trkpt lat="37.03030601252338" lon="-7.9972102477930385"><ele>1.0</ele><time>2026-04-04T10:39:39.999Z</time></trkpt><trkpt lat="37.03039910865771" lon="-7.997234582512456"><ele>1.5</ele><time>2026-04-04T10:39:42.999Z</time></trkpt><trkpt lat="37.030471914349164" lon="-7.9972679718404605"><ele>2.0</ele><time>2026-04-04T10:39:45.999Z</time></trkpt><trkpt lat="37.030548004595005" lon="-7.997208837580711"><ele>2.5</ele><time>2026-04-04T10:39:49.999Z</time></trkpt><trkpt lat="37.030629416347985" lon="-7.997177487647405"><ele>3.0</ele><time>2026-04-04T10:39:52.999Z</time></trkpt><trkpt lat="37.030701530608944" lon="-7.997160749887809"><ele>2.9999999999999996</ele><time>2026-04-04T10:41:18Z</time></trkpt><trkpt lat="37.030763217207564" lon="-7.99710251401136"><ele>3.0</ele><time>2026-04-04T10:41:23.999Z</time></trkpt><trkpt lat="37.030802341433315" lon="-7.9970300753463475"><ele>3.0</ele><time>2026-04-04T10:41:27.999Z</time></trkpt><trkpt lat="37.03084048804923" lon="-7.9969467819914755"><ele>3.0</ele><time>2026-04-04T10:41:30.999Z</time></trkpt><trkpt lat="37.03086135441814" lon="-7.99687056639927"><ele>3.0</ele><time>2026-04-04T10:41:32.999Z</time></trkpt><trkpt lat="37.030886172034386" lon="-7.996781387670046"><ele>2.9999999999999996</ele><time>2026-04-04T10:41:34.999Z</time></trkpt><trkpt lat="37.030920425760144" lon="-7.996687628388993"><ele>3.0</ele><time>2026-04-04T10:41:36.999Z</time></trkpt><trkpt lat="37.03095379218618" lon="-7.996588889363258"><ele>3.1428571428571423</ele><time>2026-04-04T10:41:38.999Z</time></trkpt><trkpt lat="37.03098022561563" lon="-7.996491210470875"><ele>3.2857142857142856</ele><time>2026-04-04T10:41:40.999Z</time></trkpt><trkpt lat="37.03100853427663" lon="-7.996405974696005"><ele>3.4285714285714284</ele><time>2026-04-04T10:41:42.999Z</time></trkpt><trkpt lat="37.031039311881734" lon="-7.9963341420015075"><ele>3.571428571428571</ele><time>2026-04-04T10:41:44.999Z</time></trkpt><trkpt lat="37.031065662741234" lon="-7.996259901815746"><ele>3.714285714285714</ele><time>2026-04-04T10:41:46.999Z</time></trkpt><trkpt lat="37.03109978702875" lon="-7.996187088285151"><ele>3.8571428571428568</ele><time>2026-04-04T10:41:48.999Z</time></trkpt><trkpt lat="37.03113245309655" lon="-7.996117734444521"><ele>4.0</ele><time>2026-04-04T10:41:50.999Z</time></trkpt><trkpt lat="37.03115707727105" lon="-7.996036947066925"><ele>3.9999999999999996</ele><time>2026-04-04T10:41:52.999Z</time></trkpt><trkpt lat="37.03119877418237" lon="-7.995930185936322"><ele>4.0</ele><time>2026-04-04T10:41:55.999Z</time></trkpt><trkpt lat="37.03123414576449" lon="-7.995820754270291"><ele>4.0</ele><time>2026-04-04T10:41:58.999Z</time></trkpt><trkpt lat="37.03126013864737" lon="-7.995728705870841"><ele>4.0</ele><time>2026-04-04T10:42:00.999Z</time></trkpt><trkpt lat="37.03128314251499" lon="-7.99565444624783"><ele>3.9999999999999996</ele><time>2026-04-04T10:42:02.999Z</time></trkpt><trkpt lat="37.031315421694345" lon="-7.995586172468708"><ele>4.0</ele><time>2026-04-04T10:42:04.999Z</time></trkpt><trkpt lat="37.031353860595424" lon="-7.995497105201067"><ele>4.166666666666666</ele><time>2026-04-04T10:42:07.999Z</time></trkpt><trkpt lat="37.03138420156828" lon="-7.995417171870032"><ele>4.333333333333333</ele><time>2026-04-04T10:42:10.999Z</time></trkpt><trkpt lat="37.03141258761977" lon="-7.995334615963251"><ele>4.5</ele><time>2026-04-04T10:42:13.998Z</time></trkpt><trkpt lat="37.03145121224267" lon="-7.995239863620992"><ele>4.666666666666667</ele><time>2026-04-04T10:42:16.998Z</time></trkpt><trkpt lat="37.031485775795964" lon="-7.995137123036453"><ele>4.833333333333334</ele><time>2026-04-04T10:42:19.998Z</time></trkpt><trkpt lat="37.03152748881322" lon="-7.995039072043758"><ele>5.0</ele><time>2026-04-04T10:42:22.998Z</time></trkpt><trkpt lat="37.03157425429802" lon="-7.994906115317725"><ele>5.0</ele><time>2026-04-04T10:42:25.998Z</time></trkpt><trkpt lat="37.03161868913404" lon="-7.994801548853703"><ele>5.0</ele><time>2026-04-04T10:42:26.998Z</time></trkpt><trkpt lat="37.031648912573736" lon="-7.994731299072651"><ele>5.0</ele><time>2026-04-04T10:42:28.998Z</time></trkpt><trkpt lat="37.031686624296555" lon="-7.994636435215087"><ele>5.0</ele><time>2026-04-04T10:42:31.998Z</time></trkpt><trkpt lat="37.03172213907327" lon="-7.994536863566534"><ele>5.0</ele><time>2026-04-04T10:42:34.998Z</time></trkpt><trkpt lat="37.03175729434761" lon="-7.994441987453056"><ele>5.0</ele><time>2026-04-04T10:42:37.998Z</time></trkpt><trkpt lat="37.03179088324397" lon="-7.994344603232773"><ele>4.666666666666667</ele><time>2026-04-04T10:42:41Z</time></trkpt><trkpt lat="37.03183381756866" lon="-7.994244999600452"><ele>4.333333333333334</ele><time>2026-04-04T10:42:44Z</time></trkpt><trkpt lat="37.03185917418608" lon="-7.9941369879135955"><ele>4.0</ele><time>2026-04-04T10:42:47Z</time></trkpt><trkpt lat="37.03189102452394" lon="-7.994052632869557"><ele>3.666666666666667</ele><time>2026-04-04T10:42:50Z</time></trkpt><trkpt lat="37.03193288010079" lon="-7.993945007926394"><ele>3.3333333333333335</ele><time>2026-04-04T10:42:53Z</time></trkpt><trkpt lat="37.03196504934112" lon="-7.993872862809236"><ele>3.0</ele><time>2026-04-04T10:42:55Z</time></trkpt><trkpt lat="37.03200668482657" lon="-7.993772659457388"><ele>2.8333333333333335</ele><time>2026-04-04T10:42:59Z</time></trkpt><trkpt lat="37.03204406177514" lon="-7.993663753573572"><ele>2.6666666666666665</ele><time>2026-04-04T10:43:02Z</time></trkpt><trkpt lat="37.03208855628425" lon="-7.993550500691779"><ele>2.5</ele><time>2026-04-04T10:43:05Z</time></trkpt><trkpt lat="37.032123720336955" lon="-7.993461900678967"><ele>2.333333333333333</ele><time>2026-04-04T10:43:08Z</time></trkpt><trkpt lat="37.03216093759622" lon="-7.9933710735149175"><ele>2.1666666666666665</ele><time>2026-04-04T10:43:11Z</time></trkpt><trkpt lat="37.03218984639172" lon="-7.993290184154572"><ele>2.0</ele><time>2026-04-04T10:43:13Z</time></trkpt><trkpt lat="37.032227996360774" lon="-7.99319588232016"><ele>1.8333333333333333</ele><time>2026-04-04T10:43:16Z</time></trkpt><trkpt lat="37.03225485625223" lon="-7.993108772330237"><ele>1.6666666666666665</ele><time>2026-04-04T10:43:18Z</time></trkpt><trkpt lat="37.03229079353076" lon="-7.9930229288917625"><ele>1.5</ele><time>2026-04-04T10:43:21Z</time></trkpt><trkpt lat="37.03232810142165" lon="-7.992926512788552"><ele>1.3333333333333333</ele><time>2026-04-04T10:43:24Z</time></trkpt><trkpt lat="37.0323648500469" lon="-7.992839459602896"><ele>1.1666666666666665</ele><time>2026-04-04T10:43:25.999Z</time></trkpt><trkpt lat="37.03239500939167" lon="-7.9927640714664845"><ele>1.0</ele><time>2026-04-04T10:43:28.999Z</time></trkpt><trkpt lat="37.03242919323196" lon="-7.99267176545031"><ele>0.9999999999999999</ele><time>2026-04-04T10:43:31.999Z</time></trkpt><trkpt lat="37.03246095518886" lon="-7.992585698189727"><ele>1.0</ele><time>2026-04-04T10:43:34.999Z</time></trkpt><trkpt lat="37.03252651274939" lon="-7.992465884125333"><ele>1.0</ele><time>2026-04-04T10:43:35.999Z</time></trkpt><trkpt lat="37.03255760048446" lon="-7.992382676323513"><ele>1.0</ele><time>2026-04-04T10:43:38.999Z</time></trkpt><trkpt lat="37.032589005124834" lon="-7.992303476671608"><ele>0.9999999999999999</ele><time>2026-04-04T10:43:42.999Z</time></trkpt><trkpt lat="37.032633495199235" lon="-7.992199060213831"><ele>1.0</ele><time>2026-04-04T10:43:45.999Z</time></trkpt><trkpt lat="37.032664235851946" lon="-7.9921117657296925"><ele>0.9999999999999999</ele><time>2026-04-04T10:43:48.999Z</time></trkpt><trkpt lat="37.03270432885657" lon="-7.992008662353011"><ele>1.0</ele><time>2026-04-04T10:43:51.999Z</time></trkpt><trkpt lat="37.032733595392365" lon="-7.991926079729552"><ele>1.0</ele><time>2026-04-04T10:43:53.999Z</time></trkpt><trkpt lat="37.03276734719185" lon="-7.991824438809003"><ele>1.0</ele><time>2026-04-04T10:43:56.999Z</time></trkpt><trkpt lat="37.032801483549896" lon="-7.99171990772799"><ele>0.9999999999999999</ele><time>2026-04-04T10:43:59.999Z</time></trkpt><trkpt lat="37.032845484775244" lon="-7.991618619974177"><ele>1.0</ele><time>2026-04-04T10:44:02.999Z</time></trkpt><trkpt lat="37.03288731399411" lon="-7.991520401048494"><ele>1.1666666666666665</ele><time>2026-04-04T10:44:05.999Z</time></trkpt><trkpt lat="37.03292951106671" lon="-7.991419114517062"><ele>1.3333333333333333</ele><time>2026-04-04T10:44:09.999Z</time></trkpt><trkpt lat="37.03297301800008" lon="-7.991303237060427"><ele>1.5</ele><time>2026-04-04T10:44:12.999Z</time></trkpt><trkpt lat="37.03300339816681" lon="-7.991220413714724"><ele>1.6666666666666665</ele><time>2026-04-04T10:44:15.999Z</time></trkpt><trkpt lat="37.033037893978815" lon="-7.9911262982718885"><ele>1.8333333333333333</ele><time>2026-04-04T10:44:18.999Z</time></trkpt><trkpt lat="37.033075316664664" lon="-7.991030553763183"><ele>2.0</ele><time>2026-04-04T10:44:21.998Z</time></trkpt><trkpt lat="37.033111034467076" lon="-7.990937451682354"><ele>1.9999999999999998</ele><time>2026-04-04T10:44:24.998Z</time></trkpt><trkpt lat="37.03314262607131" lon="-7.990847639286777"><ele>2.0</ele><time>2026-04-04T10:44:27.998Z</time></trkpt><trkpt lat="37.033197015627685" lon="-7.9907347157730255"><ele>2.0</ele><time>2026-04-04T10:44:30.998Z</time></trkpt><trkpt lat="37.03323506528058" lon="-7.990630289494734"><ele>2.0</ele><time>2026-04-04T10:44:33.998Z</time></trkpt><trkpt lat="37.03325940596197" lon="-7.990554954668401"><ele>1.9999999999999998</ele><time>2026-04-04T10:44:35.998Z</time></trkpt><trkpt lat="37.03329091864494" lon="-7.99047117831349"><ele>2.0</ele><time>2026-04-04T10:44:38.998Z</time></trkpt><trkpt lat="37.03333251182461" lon="-7.990370256973703"><ele>1.9999999999999998</ele><time>2026-04-04T10:44:41.998Z</time></trkpt><trkpt lat="37.03336783552063" lon="-7.990267152401026"><ele>2.0</ele><time>2026-04-04T10:44:45Z</time></trkpt><trkpt lat="37.03340579085271" lon="-7.990170476735118"><ele>2.0</ele><time>2026-04-04T10:44:48Z</time></trkpt><trkpt lat="37.033444545226146" lon="-7.99007846506692"><ele>2.0</ele><time>2026-04-04T10:44:51Z</time></trkpt><trkpt lat="37.03347670843588" lon="-7.989983461858671"><ele>1.9999999999999998</ele><time>2026-04-04T10:44:54Z</time></trkpt><trkpt lat="37.03351166398344" lon="-7.9898975882241015"><ele>2.0</ele><time>2026-04-04T10:44:58Z</time></trkpt><trkpt lat="37.03354453780375" lon="-7.989813386132666"><ele>1.7142857142857142</ele><time>2026-04-04T10:45:01Z</time></trkpt><trkpt lat="37.03357129370681" lon="-7.989735674718595"><ele>1.4285714285714284</ele><time>2026-04-04T10:45:04Z</time></trkpt><trkpt lat="37.033603151911116" lon="-7.989648352341725"><ele>1.1428571428571428</ele><time>2026-04-04T10:45:07Z</time></trkpt><trkpt lat="37.033635568076306" lon="-7.989560674708486"><ele>0.8571428571428571</ele><time>2026-04-04T10:45:10Z</time></trkpt><trkpt lat="37.0336680956199" lon="-7.989483359434648"><ele>0.5714285714285714</ele><time>2026-04-04T10:45:13Z</time></trkpt><trkpt lat="37.03369305677299" lon="-7.989408098371967"><ele>0.2857142857142857</ele><time>2026-04-04T10:45:16Z</time></trkpt><trkpt lat="37.033717802126716" lon="-7.9893283703758815"><ele>0.0</ele><time>2026-04-04T10:45:20Z</time></trkpt><trkpt lat="37.03374937182441" lon="-7.98924330267964"><ele>0.14285714285714285</ele><time>2026-04-04T10:45:23Z</time></trkpt><trkpt lat="37.033782111047664" lon="-7.989172583261308"><ele>0.2857142857142857</ele><time>2026-04-04T10:45:26Z</time></trkpt><trkpt lat="37.033809127430075" lon="-7.989098833604271"><ele>0.42857142857142855</ele><time>2026-04-04T10:45:27.999Z</time></trkpt><trkpt lat="37.03384047517771" lon="-7.989019451772559"><ele>0.5714285714285714</ele><time>2026-04-04T10:45:30.999Z</time></trkpt><trkpt lat="37.03387059285266" lon="-7.988948792629829"><ele>0.7142857142857142</ele><time>2026-04-04T10:45:33.999Z</time></trkpt><trkpt lat="37.033898531177876" lon="-7.988869503625159"><ele>0.8571428571428571</ele><time>2026-04-04T10:45:35.999Z</time></trkpt><trkpt lat="37.03393374354069" lon="-7.988778380983875"><ele>1.0</ele><time>2026-04-04T10:45:38.999Z</time></trkpt><trkpt lat="37.033980688885585" lon="-7.988682456853942"><ele>0.9999999999999999</ele><time>2026-04-04T10:45:41.999Z</time></trkpt><trkpt lat="37.034028816053606" lon="-7.9885811032799054"><ele>1.0</ele><time>2026-04-04T10:45:44.999Z</time></trkpt><trkpt lat="37.03406563856059" lon="-7.988475815860246"><ele>1.0</ele><time>2026-04-04T10:45:47.999Z</time></trkpt><trkpt lat="37.03410584410351" lon="-7.988372794141895"><ele>1.0</ele><time>2026-04-04T10:45:50.999Z</time></trkpt><trkpt lat="37.034140640437876" lon="-7.988276089107495"><ele>0.9999999999999999</ele><time>2026-04-04T10:45:53.999Z</time></trkpt><trkpt lat="37.03417570866902" lon="-7.988182313676494"><ele>1.0</ele><time>2026-04-04T10:45:56.999Z</time></trkpt><trkpt lat="37.03421278510672" lon="-7.988088999566615"><ele>1.1666666666666665</ele><time>2026-04-04T10:45:59.999Z</time></trkpt><trkpt lat="37.03425373740741" lon="-7.987989404910986"><ele>1.3333333333333333</ele><time>2026-04-04T10:46:02.999Z</time></trkpt><trkpt lat="37.03428586466252" lon="-7.987920337798542"><ele>1.5</ele><time>2026-04-04T10:46:04.999Z</time></trkpt><trkpt lat="37.03432457336611" lon="-7.987844766036422"><ele>1.6666666666666665</ele><time>2026-04-04T10:46:06.999Z</time></trkpt><trkpt lat="37.03436766262273" lon="-7.9877428687644105"><ele>1.8333333333333333</ele><time>2026-04-04T10:46:09.999Z</time></trkpt><trkpt lat="37.034404106428916" lon="-7.987638692627914"><ele>2.0</ele><time>2026-04-04T10:46:12.999Z</time></trkpt><trkpt lat="37.03444587174244" lon="-7.987534865885558"><ele>2.1666666666666665</ele><time>2026-04-04T10:46:15.999Z</time></trkpt><trkpt lat="37.034485402554544" lon="-7.987437513742947"><ele>2.333333333333333</ele><time>2026-04-04T10:46:18.999Z</time></trkpt><trkpt lat="37.03452437227191" lon="-7.987340556546765"><ele>2.5</ele><time>2026-04-04T10:46:21.999Z</time></trkpt><trkpt lat="37.03456543086039" lon="-7.9872400828459895"><ele>2.6666666666666665</ele><time>2026-04-04T10:46:24.999Z</time></trkpt><trkpt lat="37.03459898909529" lon="-7.987168638478703"><ele>2.8333333333333335</ele><time>2026-04-04T10:46:26.998Z</time></trkpt><trkpt lat="37.034623518499096" lon="-7.9870864460575035"><ele>3.0</ele><time>2026-04-04T10:46:28.998Z</time></trkpt><trkpt lat="37.03466856291536" lon="-7.98699976358298"><ele>3.0</ele><time>2026-04-04T10:46:31.998Z</time></trkpt><trkpt lat="37.03469765285951" lon="-7.986928066585083"><ele>3.0</ele><time>2026-04-04T10:46:33.998Z</time></trkpt><trkpt lat="37.03472661812608" lon="-7.986825665648827"><ele>3.0</ele><time>2026-04-04T10:46:36.998Z</time></trkpt><trkpt lat="37.03476185290959" lon="-7.986726875522145"><ele>3.0</ele><time>2026-04-04T10:46:39.998Z</time></trkpt><trkpt lat="37.03478163924748" lon="-7.986626031420577"><ele>3.0</ele><time>2026-04-04T10:46:42.998Z</time></trkpt><trkpt lat="37.0347979399747" lon="-7.9865342795408525"><ele>3.0</ele><time>2026-04-04T10:46:45.998Z</time></trkpt><trkpt lat="37.03479135767022" lon="-7.986445715269525"><ele>3.3333333333333335</ele><time>2026-04-04T10:46:48.998Z</time></trkpt><trkpt lat="37.03477670574673" lon="-7.986345189415642"><ele>3.666666666666667</ele><time>2026-04-04T10:46:52Z</time></trkpt><trkpt lat="37.034737972727136" lon="-7.986260223469314"><ele>4.0</ele><time>2026-04-04T10:46:55Z</time></trkpt><trkpt lat="37.03469230273641" lon="-7.986195521187736"><ele>4.333333333333334</ele><time>2026-04-04T10:46:58Z</time></trkpt><trkpt lat="37.0346304899763" lon="-7.986121831381232"><ele>4.666666666666667</ele><time>2026-04-04T10:47:02Z</time></trkpt><trkpt lat="37.034575714438425" lon="-7.986065856483655"><ele>5.0</ele><time>2026-04-04T10:47:05Z</time></trkpt><trkpt lat="37.03451129460713" lon="-7.9860162066552505"><ele>5.0</ele><time>2026-04-04T10:47:08Z</time></trkpt><trkpt lat="37.03445054061479" lon="-7.985973980519784"><ele>5.0</ele><time>2026-04-04T10:47:11Z</time></trkpt><trkpt lat="37.034386950574195" lon="-7.985925151751427"><ele>5.0</ele><time>2026-04-04T10:47:13Z</time></trkpt><trkpt lat="37.034324696956176" lon="-7.985879842420334"><ele>5.0</ele><time>2026-04-04T10:47:15Z</time></trkpt><trkpt lat="37.03425949768836" lon="-7.9858330761836145"><ele>5.0</ele><time>2026-04-04T10:47:18Z</time></trkpt><trkpt lat="37.03418133115423" lon="-7.985809519093672"><ele>5.0</ele><time>2026-04-04T10:47:20Z</time></trkpt><trkpt lat="37.03410643985872" lon="-7.985756967761582"><ele>4.666666666666667</ele><time>2026-04-04T10:47:23Z</time></trkpt><trkpt lat="37.0340399019438" lon="-7.985711561756159"><ele>4.333333333333334</ele><time>2026-04-04T10:47:26Z</time></trkpt><trkpt lat="37.03398459395918" lon="-7.985671253800331"><ele>4.0</ele><time>2026-04-04T10:47:29Z</time></trkpt><trkpt lat="37.033916144932455" lon="-7.985627595665476"><ele>3.666666666666667</ele><time>2026-04-04T10:47:33Z</time></trkpt><trkpt lat="37.033856219150096" lon="-7.985573614406504"><ele>3.3333333333333335</ele><time>2026-04-04T10:47:35.999Z</time></trkpt><trkpt lat="37.03379516992537" lon="-7.985497177021061"><ele>3.0</ele><time>2026-04-04T10:47:38.999Z</time></trkpt><trkpt lat="37.03376297651952" lon="-7.98539038609042"><ele>3.0</ele><time>2026-04-04T10:47:41.999Z</time></trkpt><trkpt lat="37.03373595108401" lon="-7.985300759077086"><ele>3.0</ele><time>2026-04-04T10:47:44.999Z</time></trkpt><trkpt lat="37.03372812468003" lon="-7.985211485380484"><ele>3.0</ele><time>2026-04-04T10:47:47.999Z</time></trkpt><trkpt lat="37.033743702469216" lon="-7.985114034033165"><ele>3.0</ele><time>2026-04-04T10:47:50.999Z</time></trkpt><trkpt lat="37.03376604428353" lon="-7.985020569397991"><ele>3.0</ele><time>2026-04-04T10:47:53.999Z</time></trkpt><trkpt lat="37.033785032751474" lon="-7.984932289436918"><ele>3.0</ele><time>2026-04-04T10:47:56.999Z</time></trkpt><trkpt lat="37.03380861144182" lon="-7.984845307055002"><ele>3.3333333333333335</ele><time>2026-04-04T10:47:59.999Z</time></trkpt><trkpt lat="37.03383602781907" lon="-7.9847569775831015"><ele>3.666666666666667</ele><time>2026-04-04T10:48:02.999Z</time></trkpt><trkpt lat="37.03386806830665" lon="-7.984650672747538"><ele>4.0</ele><time>2026-04-04T10:48:04.999Z</time></trkpt><trkpt lat="37.033910305852054" lon="-7.984554765164445"><ele>4.333333333333334</ele><time>2026-04-04T10:48:07.999Z</time></trkpt><trkpt lat="37.03393919338162" lon="-7.984483167524823"><ele>4.666666666666667</ele><time>2026-04-04T10:48:09.999Z</time></trkpt><trkpt lat="37.03399281663258" lon="-7.984386516038021"><ele>5.0</ele><time>2026-04-04T10:48:12.999Z</time></trkpt><trkpt lat="37.034058536061586" lon="-7.984302143036263"><ele>5.0</ele><time>2026-04-04T10:48:15.999Z</time></trkpt><trkpt lat="37.03412568897478" lon="-7.984232747300614"><ele>5.0</ele><time>2026-04-04T10:48:18.999Z</time></trkpt><trkpt lat="37.03419480449704" lon="-7.984183187830482"><ele>5.0</ele><time>2026-04-04T10:48:21.999Z</time></trkpt><trkpt lat="37.03425344468626" lon="-7.984148537946375"><ele>5.0</ele><time>2026-04-04T10:48:24.999Z</time></trkpt><trkpt lat="37.034327693863126" lon="-7.984116437101786"><ele>5.0</ele><time>2026-04-04T10:48:27.999Z</time></trkpt><trkpt lat="37.03441249390496" lon="-7.984087336639633"><ele>5.0</ele><time>2026-04-04T10:48:30.999Z</time></trkpt><trkpt lat="37.034494548534916" lon="-7.984053220581884"><ele>5.0</ele><time>2026-04-04T10:48:33.998Z</time></trkpt><trkpt lat="37.03458339057521" lon="-7.984019157032226"><ele>5.0</ele><time>2026-04-04T10:48:36.998Z</time></trkpt><trkpt lat="37.03465076658548" lon="-7.983994192834604"><ele>5.0</ele><time>2026-04-04T10:48:38.998Z</time></trkpt><trkpt lat="37.03471059234415" lon="-7.983964177035511"><ele>5.0</ele><time>2026-04-04T10:48:40.998Z</time></trkpt><trkpt lat="37.03477113784654" lon="-7.983919441888208"><ele>5.0</ele><time>2026-04-04T10:48:42.998Z</time></trkpt><trkpt lat="37.03483737980254" lon="-7.983877300992981"><ele>5.0</ele><time>2026-04-04T10:48:44.998Z</time></trkpt><trkpt lat="37.03489592619896" lon="-7.9838273318079995"><ele>5.0</ele><time>2026-04-04T10:48:46.998Z</time></trkpt><trkpt lat="37.03495080917689" lon="-7.983776259735095"><ele>5.166666666666667</ele><time>2026-04-04T10:48:48.998Z</time></trkpt><trkpt lat="37.03500085580528" lon="-7.983718030890477"><ele>5.333333333333334</ele><time>2026-04-04T10:48:50.998Z</time></trkpt><trkpt lat="37.035061608975724" lon="-7.983628235116858"><ele>5.5</ele><time>2026-04-04T10:48:53.998Z</time></trkpt><trkpt lat="37.03511687633354" lon="-7.983549429753895"><ele>5.666666666666667</ele><time>2026-04-04T10:48:57Z</time></trkpt><trkpt lat="37.03516233631826" lon="-7.98346763897314"><ele>5.833333333333333</ele><time>2026-04-04T10:48:59Z</time></trkpt><trkpt lat="37.035194068825305" lon="-7.983387337274334"><ele>6.0</ele><time>2026-04-04T10:49:01Z</time></trkpt><trkpt lat="37.03523914880612" lon="-7.983321302710665"><ele>6.0</ele><time>2026-04-04T10:49:03Z</time></trkpt><trkpt lat="37.03528196982051" lon="-7.983216513753005"><ele>6.0</ele><time>2026-04-04T10:49:06Z</time></trkpt><trkpt lat="37.03532398198832" lon="-7.98311667648786"><ele>6.0</ele><time>2026-04-04T10:49:09Z</time></trkpt><trkpt lat="37.0353476282503" lon="-7.983036977540921"><ele>6.0</ele><time>2026-04-04T10:49:11Z</time></trkpt><trkpt lat="37.03537769993696" lon="-7.982954945725762"><ele>6.0</ele><time>2026-04-04T10:49:13Z</time></trkpt><trkpt lat="37.03539036252977" lon="-7.982870474078686"><ele>6.0</ele><time>2026-04-04T10:49:15Z</time></trkpt><trkpt lat="37.03540289677549" lon="-7.982775904619742"><ele>5.999999999999999</ele><time>2026-04-04T10:49:17Z</time></trkpt><trkpt lat="37.03541360015941" lon="-7.982672661392649"><ele>6.0</ele><time>2026-04-04T10:49:19Z</time></trkpt><trkpt lat="37.03542050054161" lon="-7.982581906962255"><ele>6.0</ele><time>2026-04-04T10:49:21Z</time></trkpt><trkpt lat="37.03542305755019" lon="-7.982489128611755"><ele>6.0</ele><time>2026-04-04T10:49:23Z</time></trkpt><trkpt lat="37.03543273242712" lon="-7.982397587679521"><ele>6.0</ele><time>2026-04-04T10:49:25Z</time></trkpt><trkpt lat="37.0354326600989" lon="-7.982315835056567"><ele>5.999999999999999</ele><time>2026-04-04T10:49:27Z</time></trkpt><trkpt lat="37.03543372973421" lon="-7.982232187571778"><ele>6.0</ele><time>2026-04-04T10:49:29Z</time></trkpt><trkpt lat="37.03542074225993" lon="-7.982125662248403"><ele>5.999999999999999</ele><time>2026-04-04T10:49:32Z</time></trkpt><trkpt lat="37.035420770398154" lon="-7.98204229539414"><ele>6.0</ele><time>2026-04-04T10:49:34Z</time></trkpt><trkpt lat="37.035417192633965" lon="-7.981944221676676"><ele>6.0</ele><time>2026-04-04T10:49:36Z</time></trkpt><trkpt lat="37.03542614592775" lon="-7.98184947533277"><ele>6.0</ele><time>2026-04-04T10:49:38Z</time></trkpt><trkpt lat="37.03542872652383" lon="-7.981757140680631"><ele>6.0</ele><time>2026-04-04T10:49:40Z</time></trkpt><trkpt lat="37.03543092772371" lon="-7.981675391579577"><ele>5.999999999999999</ele><time>2026-04-04T10:49:42Z</time></trkpt><trkpt lat="37.035418741398146" lon="-7.981596213432331"><ele>6.0</ele><time>2026-04-04T10:49:44Z</time></trkpt><trkpt lat="37.035410156762254" lon="-7.9814814564611"><ele>5.166666666666667</ele><time>2026-04-04T10:49:46.999Z</time></trkpt><trkpt lat="37.03541025165539" lon="-7.981366262359661"><ele>4.333333333333333</ele><time>2026-04-04T10:49:49.999Z</time></trkpt><trkpt lat="37.035411777053525" lon="-7.981259234372758"><ele>3.5</ele><time>2026-04-04T10:49:52.999Z</time></trkpt><trkpt lat="37.03541411982523" lon="-7.98116563909813"><ele>2.6666666666666665</ele><time>2026-04-04T10:49:55.999Z</time></trkpt><trkpt lat="37.03541812340289" lon="-7.98108337476197"><ele>1.8333333333333333</ele><time>2026-04-04T10:49:58.999Z</time></trkpt><trkpt lat="37.03541613668186" lon="-7.980993564710223"><ele>1.0</ele><time>2026-04-04T10:50:02.999Z</time></trkpt><trkpt lat="37.03541274132645" lon="-7.980906574508818"><ele>1.2857142857142856</ele><time>2026-04-04T10:50:06.999Z</time></trkpt><trkpt lat="37.03540998344664" lon="-7.9808262699821295"><ele>1.5714285714285712</ele><time>2026-04-04T10:50:11.999Z</time></trkpt><trkpt lat="37.03539964291808" lon="-7.98073746356898"><ele>1.857142857142857</ele><time>2026-04-04T10:50:15.999Z</time></trkpt><trkpt lat="37.035388418427694" lon="-7.980639424863468"><ele>2.142857142857143</ele><time>2026-04-04T10:50:18.999Z</time></trkpt><trkpt lat="37.03535343661835" lon="-7.980564787136373"><ele>2.4285714285714284</ele><time>2026-04-04T10:50:20.999Z</time></trkpt><trkpt lat="37.035299764776106" lon="-7.980502910110221"><ele>2.714285714285714</ele><time>2026-04-04T10:50:22.999Z</time></trkpt><trkpt lat="37.035244285565845" lon="-7.9804485250641175"><ele>3.0</ele><time>2026-04-04T10:50:24.999Z</time></trkpt><trkpt lat="37.0351766437868" lon="-7.980398630915835"><ele>3.0</ele><time>2026-04-04T10:50:26.999Z</time></trkpt><trkpt lat="37.03511531049396" lon="-7.980365075404513"><ele>3.0</ele><time>2026-04-04T10:50:28.999Z</time></trkpt><trkpt lat="37.035033723802044" lon="-7.980310128545633"><ele>3.0</ele><time>2026-04-04T10:50:31.999Z</time></trkpt><trkpt lat="37.034958333265614" lon="-7.98027911296325"><ele>3.0</ele><time>2026-04-04T10:50:34.999Z</time></trkpt><trkpt lat="37.03489622806015" lon="-7.980249746372779"><ele>3.0</ele><time>2026-04-04T10:50:36.999Z</time></trkpt><trkpt lat="37.034828218588224" lon="-7.980223886715112"><ele>3.0</ele><time>2026-04-04T10:50:39.999Z</time></trkpt><trkpt lat="37.03474705386287" lon="-7.980176363537393"><ele>2.8</ele><time>2026-04-04T10:50:42.999Z</time></trkpt><trkpt lat="37.034664554338484" lon="-7.980135790119637"><ele>2.5999999999999996</ele><time>2026-04-04T10:50:45.998Z</time></trkpt><trkpt lat="37.03458386189922" lon="-7.980083353918865"><ele>2.4000000000000004</ele><time>2026-04-04T10:50:48.998Z</time></trkpt><trkpt lat="37.03450223853604" lon="-7.980021252739084"><ele>2.2</ele><time>2026-04-04T10:50:51.998Z</time></trkpt><trkpt lat="37.034429439867914" lon="-7.979964254097172"><ele>2.0</ele><time>2026-04-04T10:50:53.998Z</time></trkpt><trkpt lat="37.03435204450239" lon="-7.979908026231844"><ele>2.4285714285714284</ele><time>2026-04-04T10:50:56.998Z</time></trkpt><trkpt lat="37.03429679129594" lon="-7.97985924775043"><ele>2.8571428571428568</ele><time>2026-04-04T10:50:58.998Z</time></trkpt><trkpt lat="37.03424424042179" lon="-7.979806039805577"><ele>3.2857142857142856</ele><time>2026-04-04T10:51:01Z</time></trkpt><trkpt lat="37.034194863509015" lon="-7.979739149020569"><ele>3.7142857142857144</ele><time>2026-04-04T10:51:03Z</time></trkpt><trkpt lat="37.03414643447224" lon="-7.979686472806056"><ele>4.142857142857143</ele><time>2026-04-04T10:51:05Z</time></trkpt><trkpt lat="37.03408818040637" lon="-7.979634649851336"><ele>4.571428571428571</ele><time>2026-04-04T10:51:08Z</time></trkpt><trkpt lat="37.03403161467101" lon="-7.979573597965937"><ele>5.0</ele><time>2026-04-04T10:51:11Z</time></trkpt><trkpt lat="37.033961489923925" lon="-7.979510634623624"><ele>5.714285714285714</ele><time>2026-04-04T10:51:14Z</time></trkpt><trkpt lat="37.03389036152549" lon="-7.979476978501188"><ele>6.428571428571429</ele><time>2026-04-04T10:51:17Z</time></trkpt><trkpt lat="37.033865970826746" lon="-7.979404240917233"><ele>7.142857142857142</ele><time>2026-04-04T10:51:56.999Z</time></trkpt><trkpt lat="37.033805756236674" lon="-7.979342449673378"><ele>7.857142857142858</ele><time>2026-04-04T10:52:21.999Z</time></trkpt><trkpt lat="37.03374556155713" lon="-7.979281163887956"><ele>8.571428571428571</ele><time>2026-04-04T10:52:23.999Z</time></trkpt><trkpt lat="37.033685038292916" lon="-7.979220902323017"><ele>9.285714285714285</ele><time>2026-04-04T10:52:26.999Z</time></trkpt><trkpt lat="37.0336361761835" lon="-7.979154925718932"><ele>10.0</ele><time>2026-04-04T10:52:28.999Z</time></trkpt><trkpt lat="37.03356609216136" lon="-7.979104808548075"><ele>10.285714285714285</ele><time>2026-04-04T10:52:31.999Z</time></trkpt><trkpt lat="37.03350502412386" lon="-7.979050965417318"><ele>10.571428571428571</ele><time>2026-04-04T10:52:34.999Z</time></trkpt><trkpt lat="37.033443413983825" lon="-7.978986026518087"><ele>10.857142857142858</ele><time>2026-04-04T10:52:37.999Z</time></trkpt><trkpt lat="37.033382317718136" lon="-7.978920989820242"><ele>11.142857142857142</ele><time>2026-04-04T10:52:42.999Z</time></trkpt><trkpt lat="37.03332692284941" lon="-7.978860730676921"><ele>11.428571428571429</ele><time>2026-04-04T10:52:46.999Z</time></trkpt><trkpt lat="37.033276187670964" lon="-7.978806274404146"><ele>11.714285714285714</ele><time>2026-04-04T10:52:50.998Z</time></trkpt><trkpt lat="37.03321186958288" lon="-7.978793538458619"><ele>12.0</ele><time>2026-04-04T10:52:59.998Z</time></trkpt><trkpt lat="37.03315003198202" lon="-7.978756842232992"><ele>12.285714285714285</ele><time>2026-04-04T10:53:06Z</time></trkpt><trkpt lat="37.033097345852596" lon="-7.9787008310548835"><ele>12.571428571428571</ele><time>2026-04-04T10:53:11Z</time></trkpt><trkpt lat="37.03304681583556" lon="-7.978644422801668"><ele>12.857142857142858</ele><time>2026-04-04T10:53:17Z</time></trkpt><trkpt lat="37.03299893062447" lon="-7.978592333022526"><ele>13.142857142857142</ele><time>2026-04-04T10:53:23Z</time></trkpt><trkpt lat="37.03295193273685" lon="-7.978538557469702"><ele>13.428571428571429</ele><time>2026-04-04T10:53:29Z</time></trkpt><trkpt lat="37.032904890449714" lon="-7.97847241026338"><ele>13.714285714285714</ele><time>2026-04-04T10:53:35Z</time></trkpt><trkpt lat="37.032852143242444" lon="-7.9784041472671525"><ele>14.0</ele><time>2026-04-04T10:53:41Z</time></trkpt><trkpt lat="37.03279155948409" lon="-7.978362112237682"><ele>14.142857142857142</ele><time>2026-04-04T10:53:47Z</time></trkpt><trkpt lat="37.032736500827305" lon="-7.978312304216048"><ele>14.285714285714285</ele><time>2026-04-04T10:53:52Z</time></trkpt><trkpt lat="37.03267714748444" lon="-7.978256626945873"><ele>14.428571428571429</ele><time>2026-04-04T10:53:58Z</time></trkpt><trkpt lat="37.03262466373224" lon="-7.978210877532303"><ele>14.571428571428571</ele><time>2026-04-04T10:54:03.999Z</time></trkpt><trkpt lat="37.032571111738854" lon="-7.978145019112765"><ele>14.714285714285714</ele><time>2026-04-04T10:54:09.999Z</time></trkpt><trkpt lat="37.032520219906615" lon="-7.978083457361595"><ele>14.857142857142858</ele><time>2026-04-04T10:54:15.999Z</time></trkpt><trkpt lat="37.032468882109114" lon="-7.978033712886516"><ele>15.0</ele><time>2026-04-04T10:54:20.999Z</time></trkpt><trkpt lat="37.03241666234916" lon="-7.977983688229437"><ele>15.0</ele><time>2026-04-04T10:54:26.999Z</time></trkpt><trkpt lat="37.03235511358274" lon="-7.977935476359868"><ele>15.0</ele><time>2026-04-04T10:54:33.999Z</time></trkpt><trkpt lat="37.03229874777468" lon="-7.97789155276046"><ele>15.0</ele><time>2026-04-04T10:54:38.999Z</time></trkpt><trkpt lat="37.03224584489237" lon="-7.9778224378493405"><ele>15.0</ele><time>2026-04-04T10:54:44.999Z</time></trkpt><trkpt lat="37.032188286497515" lon="-7.97776091468229"><ele>15.0</ele><time>2026-04-04T10:54:50.999Z</time></trkpt><trkpt lat="37.03213657518264" lon="-7.9777097417914"><ele>15.0</ele><time>2026-04-04T10:54:56.999Z</time></trkpt><trkpt lat="37.032082740954095" lon="-7.977662648535229"><ele>15.0</ele><time>2026-04-04T10:55:02.998Z</time></trkpt><trkpt lat="37.032032895156355" lon="-7.977612936494046"><ele>15.0</ele><time>2026-04-04T10:55:07.998Z</time></trkpt><trkpt lat="37.03198129501445" lon="-7.977550244303407"><ele>15.0</ele><time>2026-04-04T10:55:14Z</time></trkpt><trkpt lat="37.031927865871175" lon="-7.977499972780974"><ele>15.0</ele><time>2026-04-04T10:55:20Z</time></trkpt><trkpt lat="37.03186496090502" lon="-7.977433352807958"><ele>15.0</ele><time>2026-04-04T10:55:26Z</time></trkpt><trkpt lat="37.03180731671508" lon="-7.977362781166194"><ele>15.0</ele><time>2026-04-04T10:55:30Z</time></trkpt><trkpt lat="37.03175725480422" lon="-7.977309256452997"><ele>15.0</ele><time>2026-04-04T10:55:33Z</time></trkpt><trkpt lat="37.031697844442895" lon="-7.977245774875601"><ele>15.0</ele><time>2026-04-04T10:55:36Z</time></trkpt><trkpt lat="37.03163172878505" lon="-7.977184750207377"><ele>15.285714285714286</ele><time>2026-04-04T10:55:40Z</time></trkpt><trkpt lat="37.031581414466174" lon="-7.977130016084052"><ele>15.57142857142857</ele><time>2026-04-04T10:55:43Z</time></trkpt><trkpt lat="37.031528348886646" lon="-7.97708112422482"><ele>15.857142857142856</ele><time>2026-04-04T10:55:46Z</time></trkpt><trkpt lat="37.03147286414237" lon="-7.977028111579487"><ele>16.142857142857142</ele><time>2026-04-04T10:55:49Z</time></trkpt><trkpt lat="37.03141744396286" lon="-7.97697000048361"><ele>16.428571428571427</ele><time>2026-04-04T10:55:52Z</time></trkpt><trkpt lat="37.03135285375201" lon="-7.976900756660824"><ele>16.71428571428571</ele><time>2026-04-04T10:55:55Z</time></trkpt><trkpt lat="37.03129992808415" lon="-7.9768458996191605"><ele>17.0</ele><time>2026-04-04T10:55:58Z</time></trkpt><trkpt lat="37.03124298892193" lon="-7.976782847968386"><ele>16.999999999999996</ele><time>2026-04-04T10:56:01.999Z</time></trkpt><trkpt lat="37.03119178252349" lon="-7.97672882705972"><ele>17.0</ele><time>2026-04-04T10:56:04.999Z</time></trkpt><trkpt lat="37.03113446289772" lon="-7.976671437763275"><ele>17.0</ele><time>2026-04-04T10:56:07.999Z</time></trkpt><trkpt lat="37.03108575086514" lon="-7.9766115309334245"><ele>17.0</ele><time>2026-04-04T10:56:10.999Z</time></trkpt><trkpt lat="37.03103495610032" lon="-7.976553113751825"><ele>17.0</ele><time>2026-04-04T10:56:13.999Z</time></trkpt><trkpt lat="37.030982841943086" lon="-7.976505627471188"><ele>16.999999999999996</ele><time>2026-04-04T10:56:15.999Z</time></trkpt><trkpt lat="37.03093754105277" lon="-7.976450233044787"><ele>17.0</ele><time>2026-04-04T10:56:18.999Z</time></trkpt><trkpt lat="37.030870683242696" lon="-7.976413197425369"><ele>17.666666666666668</ele><time>2026-04-04T10:56:21.999Z</time></trkpt><trkpt lat="37.0308076802681" lon="-7.976346904692863"><ele>18.333333333333336</ele><time>2026-04-04T10:56:25.999Z</time></trkpt><trkpt lat="37.030749366679174" lon="-7.9762796251746275"><ele>19.0</ele><time>2026-04-04T10:56:29.999Z</time></trkpt><trkpt lat="37.03069826807361" lon="-7.97621850939251"><ele>19.666666666666668</ele><time>2026-04-04T10:56:32.999Z</time></trkpt><trkpt lat="37.03062469774799" lon="-7.976154254372768"><ele>20.333333333333332</ele><time>2026-04-04T10:56:35.999Z</time></trkpt><trkpt lat="37.03057348458922" lon="-7.97610033281277"><ele>21.0</ele><time>2026-04-04T10:56:38.999Z</time></trkpt><trkpt lat="37.03052963889888" lon="-7.976040586742212"><ele>21.0</ele><time>2026-04-04T10:56:41.999Z</time></trkpt><trkpt lat="37.030464016446864" lon="-7.976003395659684"><ele>21.0</ele><time>2026-04-04T10:56:44.999Z</time></trkpt><trkpt lat="37.03040767935654" lon="-7.975942368602055"><ele>21.0</ele><time>2026-04-04T10:56:47.999Z</time></trkpt><trkpt lat="37.030362500589334" lon="-7.975878920403279"><ele>21.0</ele><time>2026-04-04T10:56:50.999Z</time></trkpt><trkpt lat="37.0303035534075" lon="-7.97584248663248"><ele>21.0</ele><time>2026-04-04T10:56:53.999Z</time></trkpt><trkpt lat="37.0302527700223" lon="-7.97578933371484"><ele>21.0</ele><time>2026-04-04T10:56:56.999Z</time></trkpt><trkpt lat="37.03019121261137" lon="-7.975734650865433"><ele>21.0</ele><time>2026-04-04T10:57:00.999Z</time></trkpt><trkpt lat="37.03013454893083" lon="-7.9756756467377485"><ele>21.285714285714285</ele><time>2026-04-04T10:57:04.998Z</time></trkpt><trkpt lat="37.03008311276075" lon="-7.975619124364208"><ele>21.57142857142857</ele><time>2026-04-04T10:57:08.998Z</time></trkpt><trkpt lat="37.03001683123519" lon="-7.975555445714315"><ele>21.857142857142858</ele><time>2026-04-04T10:57:12.998Z</time></trkpt><trkpt lat="37.02997137887428" lon="-7.975499788308179"><ele>22.142857142857142</ele><time>2026-04-04T10:57:15.998Z</time></trkpt><trkpt lat="37.02992072059997" lon="-7.975447880585108"><ele>22.428571428571427</ele><time>2026-04-04T10:57:19Z</time></trkpt><trkpt lat="37.02987140431269" lon="-7.975393965621438"><ele>22.714285714285715</ele><time>2026-04-04T10:57:22Z</time></trkpt><trkpt lat="37.029818273316884" lon="-7.97534376987049"><ele>23.0</ele><time>2026-04-04T10:57:25Z</time></trkpt><trkpt lat="37.0297483647611" lon="-7.97527374235672"><ele>23.0</ele><time>2026-04-04T10:57:29Z</time></trkpt><trkpt lat="37.029684332408685" lon="-7.975226468724928"><ele>23.0</ele><time>2026-04-04T10:57:34Z</time></trkpt><trkpt lat="37.02963234465722" lon="-7.975181106931309"><ele>23.0</ele><time>2026-04-04T10:57:37Z</time></trkpt><trkpt lat="37.029572687008525" lon="-7.9751253111041045"><ele>23.0</ele><time>2026-04-04T10:57:40Z</time></trkpt><trkpt lat="37.029518287283885" lon="-7.97506248452116"><ele>23.0</ele><time>2026-04-04T10:57:43Z</time></trkpt><trkpt lat="37.02945684347958" lon="-7.974999215335141"><ele>23.0</ele><time>2026-04-04T10:57:46Z</time></trkpt><trkpt lat="37.02939846719197" lon="-7.974919879976679"><ele>23.0</ele><time>2026-04-04T10:57:49Z</time></trkpt><trkpt lat="37.02936273825909" lon="-7.974847785663047"><ele>23.0</ele><time>2026-04-04T10:57:52Z</time></trkpt><trkpt lat="37.029285169319614" lon="-7.974824557830001"><ele>23.0</ele><time>2026-04-04T10:57:55Z</time></trkpt><trkpt lat="37.02922556556925" lon="-7.974795238761928"><ele>23.0</ele><time>2026-04-04T10:57:57Z</time></trkpt><trkpt lat="37.0291542469761" lon="-7.974729155590407"><ele>23.0</ele><time>2026-04-04T10:57:59.999Z</time></trkpt><trkpt lat="37.0291423835061" lon="-7.974608823216559"><ele>23.0</ele><time>2026-04-04T10:58:02.999Z</time></trkpt><trkpt lat="37.02919121408891" lon="-7.97453476412351"><ele>23.0</ele><time>2026-04-04T10:58:04.999Z</time></trkpt><trkpt lat="37.02924074491066" lon="-7.974474215111261"><ele>23.0</ele><time>2026-04-04T10:58:06.999Z</time></trkpt><trkpt lat="37.029286686380665" lon="-7.974372778459825"><ele>23.0</ele><time>2026-04-04T10:58:09.999Z</time></trkpt><trkpt lat="37.02929978927973" lon="-7.974268025324459"><ele>23.0</ele><time>2026-04-04T10:58:11.999Z</time></trkpt><trkpt lat="37.02931829629358" lon="-7.97415219512461"><ele>23.0</ele><time>2026-04-04T10:58:13.999Z</time></trkpt><trkpt lat="37.02934580826299" lon="-7.9740373672397915"><ele>23.0</ele><time>2026-04-04T10:58:15.999Z</time></trkpt><trkpt lat="37.02935693657428" lon="-7.973897590797037"><ele>22.5</ele><time>2026-04-04T10:58:17.999Z</time></trkpt><trkpt lat="37.02935581093173" lon="-7.9737557927689116"><ele>22.0</ele><time>2026-04-04T10:58:19.999Z</time></trkpt><trkpt lat="37.02937138076871" lon="-7.973620068721819"><ele>21.5</ele><time>2026-04-04T10:58:21.999Z</time></trkpt><trkpt lat="37.029390895279924" lon="-7.973481926072448"><ele>21.0</ele><time>2026-04-04T10:58:23.999Z</time></trkpt><trkpt lat="37.02940486063393" lon="-7.973332300792654"><ele>20.6</ele><time>2026-04-04T10:58:25.999Z</time></trkpt><trkpt lat="37.02942318023831" lon="-7.973195698941723"><ele>20.200000000000003</ele><time>2026-04-04T10:58:27.999Z</time></trkpt><trkpt lat="37.02943873541232" lon="-7.973058361463567"><ele>19.799999999999997</ele><time>2026-04-04T10:58:29.999Z</time></trkpt><trkpt lat="37.0294452356651" lon="-7.972916591874485"><ele>19.4</ele><time>2026-04-04T10:58:31.999Z</time></trkpt><trkpt lat="37.029462964204654" lon="-7.972779826890109"><ele>19.0</ele><time>2026-04-04T10:58:33.999Z</time></trkpt><trkpt lat="37.02947638087389" lon="-7.972644449173205"><ele>18.2</ele><time>2026-04-04T10:58:35.999Z</time></trkpt><trkpt lat="37.029491358548896" lon="-7.972506816181426"><ele>17.4</ele><time>2026-04-04T10:58:37.999Z</time></trkpt><trkpt lat="37.029503098576235" lon="-7.972376253504589"><ele>16.6</ele><time>2026-04-04T10:58:39.999Z</time></trkpt><trkpt lat="37.02951763727106" lon="-7.972255380952036"><ele>15.8</ele><time>2026-04-04T10:58:41.999Z</time></trkpt><trkpt lat="37.02952782835097" lon="-7.9721380620157465"><ele>15.0</ele><time>2026-04-04T10:58:43.999Z</time></trkpt><trkpt lat="37.029538853416454" lon="-7.97201811932601"><ele>15.0</ele><time>2026-04-04T10:58:45.999Z</time></trkpt><trkpt lat="37.029552688534515" lon="-7.971906186012478"><ele>15.0</ele><time>2026-04-04T10:58:47.999Z</time></trkpt><trkpt lat="37.02956191937156" lon="-7.971788782644531"><ele>15.0</ele><time>2026-04-04T10:58:49.999Z</time></trkpt><trkpt lat="37.02957571012936" lon="-7.971673002555269"><ele>15.0</ele><time>2026-04-04T10:58:51.999Z</time></trkpt><trkpt lat="37.02959224478351" lon="-7.971554761046566"><ele>15.0</ele><time>2026-04-04T10:58:53.999Z</time></trkpt><trkpt lat="37.029603267046085" lon="-7.971439072430152"><ele>15.0</ele><time>2026-04-04T10:58:55.999Z</time></trkpt><trkpt lat="37.029617746277296" lon="-7.971323734425405"><ele>15.0</ele><time>2026-04-04T10:58:57.999Z</time></trkpt><trkpt lat="37.029643090295956" lon="-7.971208886416687"><ele>15.0</ele><time>2026-04-04T10:58:59.999Z</time></trkpt><trkpt lat="37.029647253842846" lon="-7.971098741774717"><ele>15.0</ele><time>2026-04-04T10:59:01.998Z</time></trkpt><trkpt lat="37.02965569364651" lon="-7.970998305823274"><ele>15.0</ele><time>2026-04-04T10:59:03.998Z</time></trkpt><trkpt lat="37.029677445686865" lon="-7.970902103310216"><ele>15.0</ele><time>2026-04-04T10:59:05.998Z</time></trkpt><trkpt lat="37.029690096218424" lon="-7.970803565913866"><ele>14.833333333333334</ele><time>2026-04-04T10:59:07.998Z</time></trkpt><trkpt lat="37.029712088273406" lon="-7.9707069645310575"><ele>14.666666666666668</ele><time>2026-04-04T10:59:09.998Z</time></trkpt><trkpt lat="37.029725114716" lon="-7.970616068843998"><ele>14.5</ele><time>2026-04-04T10:59:11.998Z</time></trkpt><trkpt lat="37.02973176636444" lon="-7.970527201347949"><ele>14.333333333333334</ele><time>2026-04-04T10:59:13.998Z</time></trkpt><trkpt lat="37.02974724653606" lon="-7.970429043334316"><ele>14.166666666666668</ele><time>2026-04-04T10:59:16.998Z</time></trkpt><trkpt lat="37.02973010383058" lon="-7.9703381124657"><ele>14.0</ele><time>2026-04-04T10:59:19.998Z</time></trkpt><trkpt lat="37.02965570294272" lon="-7.970294850142368"><ele>14.0</ele><time>2026-04-04T10:59:25Z</time></trkpt><trkpt lat="37.029592496360664" lon="-7.970296174800655"><ele>14.0</ele><time>2026-04-04T10:59:27Z</time></trkpt><trkpt lat="37.02953104945487" lon="-7.970265162257365"><ele>14.0</ele><time>2026-04-04T10:59:29Z</time></trkpt><trkpt lat="37.02945562178853" lon="-7.970251355349293"><ele>14.0</ele><time>2026-04-04T10:59:31Z</time></trkpt><trkpt lat="37.02938531912654" lon="-7.970234370687185"><ele>14.0</ele><time>2026-04-04T10:59:33Z</time></trkpt><trkpt lat="37.029322833435366" lon="-7.970171993869147"><ele>14.0</ele><time>2026-04-04T10:59:36Z</time></trkpt><trkpt lat="37.02931481895914" lon="-7.970080524347494"><ele>14.0</ele><time>2026-04-04T10:59:39Z</time></trkpt><trkpt lat="37.029314653023405" lon="-7.969972337105571"><ele>8.0</ele><time>2026-04-04T10:59:41Z</time></trkpt><trkpt lat="37.02934812127785" lon="-7.969904787830026"><ele>8.0</ele><time>2026-04-04T10:59:44Z</time></trkpt></trkseg></trk></gpx>